AFV88 FAOR-YSSY
Flight info
| Callsign | AFV88 |
|---|---|
| Flight time | N/A |
| Altitude | 33000 |
| Route | APDAK1B APDAK UQ48 APMAT DCT 3139S03249E 3305S03404E 3558S03720E 3901S04139E 4207S04637E 4459S05133E/N0481F340 4745S05633E 5036S06233E/N0476F350 5256S06914E 5358S07500E 5404S07544E 5451S08409E 5458S08816E 5438S09747E 5402S10424E 5305S11152E/N0485F370 5135S12053E 4920S12933E 4701S13634E 4439S14119E 4046S14617E DCT MAKRL/N0479F380 J163 CB/N0479F390 W423 CULIN Y59 RIVET |
| Aircraft | B77W/H-SDE1E2E3FGHIJ2J3J4J5M1RWXY/LB1D1 |
Departure
| Time | N/A |
|---|---|
| Airport | O.R. Tambo International Airport (FAOR) |
Arrival
| Time | 2026-05-04 08:05 |
|---|---|
| Airport | Sydney Kingsford Smith International Airport (YSSY) |
| Time | Latitude | Longitude | Altitude | Speed | Heading |
|---|---|---|---|---|---|
| 2026-05-03 20:15 | -29.49829 | 31.40078 | 31114 ft | 513 kts | 153° |
| 2026-05-03 20:15 | -29.56017 | 31.44051 | 31114 ft | 513 kts | 153° |
| 2026-05-03 20:16 | -29.62236 | 31.48050 | 31114 ft | 513 kts | 153° |
| 2026-05-03 20:16 | -29.68465 | 31.52061 | 31112 ft | 513 kts | 153° |
| 2026-05-03 20:17 | -29.74699 | 31.56081 | 31112 ft | 513 kts | 153° |
| 2026-05-03 20:17 | -29.80883 | 31.60074 | 31112 ft | 513 kts | 153° |
| 2026-05-03 20:18 | -29.87111 | 31.64101 | 31113 ft | 513 kts | 153° |
| 2026-05-03 20:18 | -29.93331 | 31.68130 | 31112 ft | 513 kts | 153° |
| 2026-05-03 20:19 | -29.99547 | 31.72161 | 31113 ft | 513 kts | 153° |
| 2026-05-03 20:19 | -30.05770 | 31.76202 | 31113 ft | 514 kts | 153° |
| 2026-05-03 20:20 | -30.11958 | 31.80227 | 31113 ft | 513 kts | 153° |
| 2026-05-03 20:20 | -30.18212 | 31.84301 | 31113 ft | 513 kts | 153° |
| 2026-05-03 20:21 | -30.24388 | 31.88330 | 31113 ft | 513 kts | 153° |
| 2026-05-03 20:21 | -30.30614 | 31.92397 | 31113 ft | 514 kts | 153° |
| 2026-05-03 20:22 | -30.36846 | 31.96475 | 31113 ft | 514 kts | 153° |
| 2026-05-03 20:22 | -30.43073 | 32.00555 | 31113 ft | 514 kts | 153° |
| 2026-05-03 20:23 | -30.49303 | 32.04643 | 31114 ft | 514 kts | 153° |
| 2026-05-03 20:23 | -30.55475 | 32.08700 | 31114 ft | 514 kts | 153° |
| 2026-05-03 20:24 | -30.61699 | 32.12796 | 31114 ft | 514 kts | 153° |
| 2026-05-03 20:24 | -30.67974 | 32.16932 | 31114 ft | 515 kts | 153° |
| 2026-05-03 20:25 | -30.74184 | 32.21031 | 31114 ft | 515 kts | 153° |
| 2026-05-03 20:25 | -30.80376 | 32.25124 | 31114 ft | 515 kts | 153° |
| 2026-05-03 20:26 | -30.86617 | 32.29257 | 31114 ft | 516 kts | 153° |
| 2026-05-03 20:26 | -30.92847 | 32.33388 | 31115 ft | 516 kts | 153° |
| 2026-05-03 20:27 | -30.99040 | 32.37501 | 31114 ft | 516 kts | 153° |
| 2026-05-03 20:27 | -31.05296 | 32.41662 | 31115 ft | 517 kts | 153° |
| 2026-05-03 20:28 | -31.11525 | 32.45811 | 31114 ft | 517 kts | 153° |
| 2026-05-03 20:28 | -31.17779 | 32.49984 | 31115 ft | 518 kts | 154° |
| 2026-05-03 20:29 | -31.24024 | 32.54157 | 31115 ft | 517 kts | 154° |
| 2026-05-03 20:29 | -31.30267 | 32.58335 | 31116 ft | 518 kts | 154° |
| 2026-05-03 20:30 | -31.36550 | 32.62547 | 31116 ft | 519 kts | 154° |
| 2026-05-03 20:30 | -31.42807 | 32.66727 | 31117 ft | 519 kts | 154° |
| 2026-05-03 20:31 | -31.49079 | 32.70948 | 31116 ft | 519 kts | 153° |
| 2026-05-03 20:31 | -31.55294 | 32.75142 | 31116 ft | 519 kts | 153° |
| 2026-05-03 20:32 | -31.61555 | 32.79370 | 31097 ft | 520 kts | 154° |
| 2026-05-03 20:32 | -31.66721 | 32.83034 | 31092 ft | 521 kts | 150° |
| 2026-05-03 20:33 | -31.73596 | 32.88824 | 31091 ft | 523 kts | 146° |
| 2026-05-03 20:33 | -31.79408 | 32.93982 | 31090 ft | 523 kts | 146° |
| 2026-05-03 20:34 | -31.85261 | 32.99081 | 31090 ft | 523 kts | 147° |
| 2026-05-03 20:34 | -31.91097 | 33.04132 | 31089 ft | 523 kts | 147° |
| 2026-05-03 20:35 | -31.96983 | 33.09188 | 31089 ft | 523 kts | 147° |
| 2026-05-03 20:35 | -32.02865 | 33.14246 | 31088 ft | 523 kts | 148° |
| 2026-05-03 20:36 | -32.08752 | 33.19331 | 31087 ft | 526 kts | 147° |
| 2026-05-03 20:36 | -32.14666 | 33.24451 | 31087 ft | 526 kts | 147° |
| 2026-05-03 20:37 | -32.20563 | 33.29567 | 31086 ft | 526 kts | 147° |
| 2026-05-03 20:37 | -32.26420 | 33.34656 | 31086 ft | 526 kts | 147° |
| 2026-05-03 20:38 | -32.32298 | 33.39772 | 31085 ft | 526 kts | 147° |
| 2026-05-03 20:38 | -32.38195 | 33.44913 | 31085 ft | 526 kts | 147° |
| 2026-05-03 20:39 | -32.44093 | 33.50063 | 31084 ft | 526 kts | 147° |
| 2026-05-03 20:39 | -32.49977 | 33.55211 | 31084 ft | 526 kts | 147° |
| 2026-05-03 20:40 | -32.55821 | 33.60331 | 31083 ft | 526 kts | 147° |
| 2026-05-03 20:40 | -32.61697 | 33.65488 | 31080 ft | 526 kts | 147° |
| 2026-05-03 20:41 | -32.62692 | 33.66362 | 31079 ft | 527 kts | 147° |
| 2026-05-03 20:42 | -32.85408 | 33.86365 | 31077 ft | 527 kts | 148° |
| 2026-05-03 20:43 | -32.91330 | 33.91602 | 31078 ft | 528 kts | 147° |
| 2026-05-03 20:43 | -32.97178 | 33.96798 | 31077 ft | 528 kts | 147° |
| 2026-05-03 20:44 | -33.03055 | 34.02028 | 31077 ft | 528 kts | 148° |
| 2026-05-03 20:44 | -33.08927 | 34.07307 | 31077 ft | 529 kts | 146° |
| 2026-05-03 20:45 | -33.14515 | 34.13076 | 31077 ft | 532 kts | 142° |
| 2026-05-03 20:45 | -33.19920 | 34.19117 | 31072 ft | 533 kts | 141° |
| 2026-05-03 20:46 | -33.25312 | 34.25086 | 31071 ft | 532 kts | 142° |
| 2026-05-03 20:46 | -33.30769 | 34.31062 | 31071 ft | 532 kts | 142° |
| 2026-05-03 20:47 | -33.36241 | 34.37017 | 31070 ft | 532 kts | 142° |
| 2026-05-03 20:47 | -33.41699 | 34.42924 | 31070 ft | 532 kts | 142° |
| 2026-05-03 20:48 | -33.47181 | 34.48892 | 31069 ft | 533 kts | 142° |
| 2026-05-03 20:48 | -33.52661 | 34.54878 | 31069 ft | 533 kts | 142° |
| 2026-05-03 20:49 | -33.58136 | 34.60872 | 31069 ft | 533 kts | 142° |
| 2026-05-03 20:49 | -33.63559 | 34.66820 | 31068 ft | 532 kts | 142° |
| 2026-05-03 20:50 | -33.69018 | 34.72819 | 31068 ft | 532 kts | 142° |
| 2026-05-03 20:50 | -33.74475 | 34.78826 | 31067 ft | 532 kts | 142° |
| 2026-05-03 20:51 | -33.79934 | 34.84847 | 31067 ft | 532 kts | 142° |
| 2026-05-03 20:51 | -33.85353 | 34.90835 | 31066 ft | 532 kts | 142° |
| 2026-05-03 20:52 | -33.90795 | 34.96858 | 31066 ft | 532 kts | 142° |
| 2026-05-03 20:52 | -33.96235 | 35.02890 | 31066 ft | 531 kts | 142° |
| 2026-05-03 20:53 | -34.00757 | 35.07913 | 31066 ft | 532 kts | 142° |
| 2026-05-03 20:53 | -34.06194 | 35.13962 | 31065 ft | 533 kts | 143° |
| 2026-05-03 20:54 | -34.11526 | 35.19905 | 31302 ft | 502 kts | 137° |
| 2026-05-03 20:54 | -34.16600 | 35.25570 | 31036 ft | 486 kts | 137° |
| 2026-05-03 20:54 | -34.19077 | 35.28339 | 31009 ft | 484 kts | 137° |
| 2026-05-03 20:55 | -34.23977 | 35.33825 | 31000 ft | 484 kts | 137° |
| 2026-05-03 20:55 | -34.28920 | 35.39368 | 31000 ft | 490 kts | 137° |
| 2026-05-03 20:56 | -34.33974 | 35.45044 | 31001 ft | 496 kts | 137° |
| 2026-05-03 20:56 | -34.39042 | 35.50745 | 31000 ft | 500 kts | 137° |
| 2026-05-03 20:57 | -34.44123 | 35.56473 | 31000 ft | 499 kts | 137° |
| 2026-05-03 20:57 | -34.49194 | 35.62198 | 30999 ft | 499 kts | 137° |
| 2026-05-03 20:58 | -34.54247 | 35.67913 | 31000 ft | 499 kts | 137° |
| 2026-05-03 20:58 | -34.59316 | 35.73656 | 30999 ft | 499 kts | 137° |
| 2026-05-03 20:59 | -34.64389 | 35.79414 | 31000 ft | 499 kts | 137° |
| 2026-05-03 20:59 | -34.69445 | 35.85162 | 30999 ft | 499 kts | 137° |
| 2026-05-03 21:00 | -34.73658 | 35.89960 | 30999 ft | 499 kts | 137° |
| 2026-05-03 21:00 | -34.79542 | 35.96672 | 30999 ft | 499 kts | 137° |
| 2026-05-03 21:01 | -34.84601 | 36.02455 | 31000 ft | 499 kts | 136° |
| 2026-05-03 21:01 | -34.89664 | 36.08252 | 30999 ft | 499 kts | 136° |
| 2026-05-03 21:02 | -34.94703 | 36.14031 | 31000 ft | 499 kts | 136° |
| 2026-05-03 21:02 | -34.99765 | 36.19848 | 30999 ft | 499 kts | 136° |
| 2026-05-03 21:03 | -35.04769 | 36.25609 | 31000 ft | 499 kts | 136° |
| 2026-05-03 21:03 | -35.09808 | 36.31420 | 30999 ft | 499 kts | 136° |
| 2026-05-03 21:04 | -35.14828 | 36.37218 | 31000 ft | 499 kts | 136° |
| 2026-05-03 21:04 | -35.19896 | 36.43083 | 30999 ft | 499 kts | 136° |
| 2026-05-03 21:05 | -35.24935 | 36.48926 | 31000 ft | 499 kts | 136° |
| 2026-05-03 21:05 | -35.29929 | 36.54727 | 31000 ft | 499 kts | 136° |
| 2026-05-03 21:06 | -35.34965 | 36.60586 | 31000 ft | 499 kts | 136° |
| 2026-05-03 21:06 | -35.39994 | 36.66449 | 30999 ft | 499 kts | 136° |
| 2026-05-03 21:07 | -35.45020 | 36.72317 | 31000 ft | 499 kts | 136° |
| 2026-05-03 21:07 | -35.50007 | 36.78152 | 31000 ft | 499 kts | 136° |
| 2026-05-03 21:08 | -35.55021 | 36.84028 | 31000 ft | 499 kts | 136° |
| 2026-05-03 21:08 | -35.60037 | 36.89919 | 31000 ft | 499 kts | 136° |
| 2026-05-03 21:09 | -35.65052 | 36.95817 | 31000 ft | 499 kts | 136° |
| 2026-05-03 21:09 | -35.70060 | 37.01720 | 31000 ft | 499 kts | 136° |
| 2026-05-03 21:10 | -35.75039 | 37.07581 | 31000 ft | 499 kts | 136° |
| 2026-05-03 21:10 | -35.80059 | 37.13494 | 31000 ft | 499 kts | 136° |
| 2026-05-03 21:11 | -35.85052 | 37.19425 | 31000 ft | 499 kts | 136° |
| 2026-05-03 21:11 | -35.90042 | 37.25366 | 31000 ft | 499 kts | 136° |
| 2026-05-03 21:12 | -35.95001 | 37.31272 | 31000 ft | 499 kts | 136° |
| 2026-05-03 21:12 | -35.99911 | 37.37333 | 31000 ft | 499 kts | 133° |
| 2026-05-03 21:13 | -36.04603 | 37.43644 | 31000 ft | 499 kts | 132° |
| 2026-05-03 21:13 | -36.09273 | 37.49990 | 31000 ft | 499 kts | 132° |
| 2026-05-03 21:14 | -36.13960 | 37.56306 | 31000 ft | 499 kts | 133° |
| 2026-05-03 21:14 | -36.18626 | 37.62585 | 31000 ft | 499 kts | 133° |
| 2026-05-03 21:15 | -36.23352 | 37.68887 | 31000 ft | 499 kts | 133° |
| 2026-05-03 21:15 | -36.28075 | 37.75180 | 31000 ft | 499 kts | 133° |
| 2026-05-03 21:16 | -36.32780 | 37.81487 | 31000 ft | 499 kts | 133° |
| 2026-05-03 21:16 | -36.37487 | 37.87819 | 31000 ft | 499 kts | 133° |
| 2026-05-03 21:17 | -36.41393 | 37.93087 | 31000 ft | 499 kts | 133° |
| 2026-05-03 21:17 | -36.46841 | 38.00450 | 31000 ft | 499 kts | 132° |
| 2026-05-03 21:18 | -36.51537 | 38.06810 | 31000 ft | 499 kts | 132° |
| 2026-05-03 21:18 | -36.56225 | 38.13171 | 31000 ft | 499 kts | 132° |
| 2026-05-03 21:19 | -36.60911 | 38.19542 | 31000 ft | 499 kts | 132° |
| 2026-05-03 21:19 | -36.65594 | 38.25921 | 31000 ft | 499 kts | 132° |
| 2026-05-03 21:20 | -36.70271 | 38.32305 | 31000 ft | 499 kts | 132° |
| 2026-05-03 21:20 | -36.74944 | 38.38696 | 31000 ft | 499 kts | 132° |
| 2026-05-03 21:21 | -36.79587 | 38.45057 | 31000 ft | 499 kts | 132° |
| 2026-05-03 21:21 | -36.84250 | 38.51458 | 31000 ft | 499 kts | 132° |
| 2026-05-03 21:22 | -36.88916 | 38.57878 | 31000 ft | 499 kts | 132° |
| 2026-05-03 21:22 | -36.93574 | 38.64298 | 31000 ft | 499 kts | 132° |
| 2026-05-03 21:23 | -36.98212 | 38.70702 | 31000 ft | 499 kts | 132° |
| 2026-05-03 21:23 | -37.02884 | 38.77168 | 31000 ft | 499 kts | 132° |
| 2026-05-03 21:24 | -37.07383 | 38.83405 | 31000 ft | 499 kts | 132° |
| 2026-05-03 21:24 | -37.12021 | 38.89847 | 31000 ft | 499 kts | 132° |
| 2026-05-03 21:25 | -37.16666 | 38.96313 | 31000 ft | 499 kts | 132° |
| 2026-05-03 21:25 | -37.21301 | 39.02776 | 31000 ft | 499 kts | 132° |
| 2026-05-03 21:26 | -37.25905 | 39.09210 | 30999 ft | 499 kts | 132° |
| 2026-05-03 21:26 | -37.30547 | 39.15709 | 31000 ft | 499 kts | 132° |
| 2026-05-03 21:27 | -37.35176 | 39.22204 | 31000 ft | 499 kts | 131° |
| 2026-05-03 21:27 | -37.39772 | 39.28665 | 31000 ft | 499 kts | 131° |
| 2026-05-03 21:28 | -37.44394 | 39.35175 | 31000 ft | 499 kts | 131° |
| 2026-05-03 21:28 | -37.49013 | 39.41694 | 31000 ft | 499 kts | 131° |
| 2026-05-03 21:29 | -37.53629 | 39.48223 | 31000 ft | 499 kts | 131° |
| 2026-05-03 21:29 | -37.58239 | 39.54756 | 31000 ft | 499 kts | 131° |
| 2026-05-03 21:30 | -37.62816 | 39.61254 | 31000 ft | 499 kts | 131° |
| 2026-05-03 21:30 | -37.67413 | 39.67796 | 31000 ft | 499 kts | 131° |
| 2026-05-03 21:31 | -37.72010 | 39.74349 | 31000 ft | 499 kts | 131° |
| 2026-05-03 21:31 | -37.76587 | 39.80888 | 30999 ft | 499 kts | 131° |
| 2026-05-03 21:32 | -37.81207 | 39.87502 | 31000 ft | 499 kts | 131° |
| 2026-05-03 21:32 | -37.85763 | 39.94037 | 31000 ft | 499 kts | 131° |
| 2026-05-03 21:33 | -37.90343 | 40.00621 | 31000 ft | 499 kts | 131° |
| 2026-05-03 21:33 | -37.94932 | 40.07230 | 31000 ft | 499 kts | 131° |
| 2026-05-03 21:34 | -37.99482 | 40.13796 | 31000 ft | 499 kts | 131° |
| 2026-05-03 21:34 | -38.04051 | 40.20405 | 31000 ft | 499 kts | 131° |
| 2026-05-03 21:35 | -38.08621 | 40.27027 | 31000 ft | 499 kts | 131° |
| 2026-05-03 21:35 | -38.13189 | 40.33661 | 31000 ft | 499 kts | 131° |
| 2026-05-03 21:36 | -38.17756 | 40.40308 | 31000 ft | 499 kts | 131° |
| 2026-05-03 21:36 | -38.22284 | 40.46911 | 31000 ft | 499 kts | 131° |
| 2026-05-03 21:37 | -38.26836 | 40.53563 | 31000 ft | 499 kts | 131° |
| 2026-05-03 21:37 | -38.31392 | 40.60233 | 30999 ft | 499 kts | 131° |
| 2026-05-03 21:38 | -38.35933 | 40.66897 | 31000 ft | 499 kts | 131° |
| 2026-05-03 21:38 | -38.40482 | 40.73586 | 31000 ft | 499 kts | 131° |
| 2026-05-03 21:39 | -38.44998 | 40.80240 | 31000 ft | 499 kts | 131° |
| 2026-05-03 21:39 | -38.49533 | 40.86936 | 31000 ft | 499 kts | 131° |
| 2026-05-03 21:40 | -38.54062 | 40.93638 | 31000 ft | 499 kts | 130° |
| 2026-05-03 21:40 | -38.58589 | 41.00350 | 31000 ft | 499 kts | 130° |
| 2026-05-03 21:41 | -38.63088 | 41.07036 | 30999 ft | 499 kts | 130° |
| 2026-05-03 21:41 | -38.67603 | 41.13760 | 31000 ft | 499 kts | 130° |
| 2026-05-03 21:42 | -38.72125 | 41.20507 | 31000 ft | 499 kts | 130° |
| 2026-05-03 21:42 | -38.76643 | 41.27263 | 31000 ft | 499 kts | 130° |
| 2026-05-03 21:43 | -38.81121 | 41.33970 | 31001 ft | 499 kts | 130° |
| 2026-05-03 21:43 | -38.85646 | 41.40709 | 31000 ft | 499 kts | 130° |
| 2026-05-03 21:44 | -38.90143 | 41.47494 | 31000 ft | 499 kts | 130° |
| 2026-05-03 21:44 | -38.94632 | 41.54288 | 31000 ft | 499 kts | 130° |
| 2026-05-03 21:45 | -38.99124 | 41.61093 | 31000 ft | 499 kts | 130° |
| 2026-05-03 21:45 | -39.03624 | 41.67879 | 31000 ft | 499 kts | 131° |
| 2026-05-03 21:46 | -39.08174 | 41.74628 | 31000 ft | 499 kts | 131° |
| 2026-05-03 21:46 | -39.12705 | 41.81383 | 31000 ft | 499 kts | 130° |
| 2026-05-03 21:47 | -39.17204 | 41.88115 | 30999 ft | 499 kts | 130° |
| 2026-05-03 21:47 | -39.21720 | 41.94892 | 31000 ft | 499 kts | 130° |
| 2026-05-03 21:48 | -39.26242 | 42.01650 | 31000 ft | 499 kts | 131° |
| 2026-05-03 21:48 | -39.30804 | 42.08422 | 31000 ft | 499 kts | 131° |
| 2026-05-03 21:49 | -39.35341 | 42.15214 | 31000 ft | 499 kts | 130° |
| 2026-05-03 21:49 | -39.39861 | 42.22012 | 31000 ft | 499 kts | 130° |
| 2026-05-03 21:50 | -39.44384 | 42.28835 | 31000 ft | 499 kts | 130° |
| 2026-05-03 21:50 | -39.48888 | 42.35647 | 31000 ft | 499 kts | 130° |
| 2026-05-03 21:51 | -39.53370 | 42.42440 | 31000 ft | 499 kts | 130° |
| 2026-05-03 21:51 | -39.57868 | 42.49273 | 31000 ft | 499 kts | 130° |
| 2026-05-03 21:52 | -39.62369 | 42.56126 | 31000 ft | 499 kts | 130° |
| 2026-05-03 21:52 | -39.66857 | 42.62974 | 31000 ft | 499 kts | 130° |
| 2026-05-03 21:53 | -39.71349 | 42.69842 | 31000 ft | 499 kts | 130° |
| 2026-05-03 21:53 | -39.75839 | 42.76725 | 31000 ft | 499 kts | 130° |
| 2026-05-03 21:54 | -39.80297 | 42.83571 | 31000 ft | 499 kts | 130° |
| 2026-05-03 21:54 | -39.84772 | 42.90460 | 31000 ft | 499 kts | 130° |
| 2026-05-03 21:55 | -39.89246 | 42.97362 | 31000 ft | 499 kts | 130° |
| 2026-05-03 21:55 | -39.93711 | 43.04267 | 31000 ft | 499 kts | 130° |
| 2026-05-03 21:56 | -39.98185 | 43.11200 | 31000 ft | 499 kts | 130° |
| 2026-05-03 21:56 | -40.02613 | 43.18077 | 31000 ft | 499 kts | 130° |
| 2026-05-03 21:57 | -40.07075 | 43.25022 | 31000 ft | 499 kts | 130° |
| 2026-05-03 21:57 | -40.11527 | 43.31968 | 31000 ft | 499 kts | 130° |
| 2026-05-03 21:58 | -40.15973 | 43.38919 | 31000 ft | 499 kts | 130° |
| 2026-05-03 21:58 | -40.20423 | 43.45892 | 31000 ft | 499 kts | 130° |
| 2026-05-03 21:59 | -40.24829 | 43.52813 | 31000 ft | 499 kts | 130° |
| 2026-05-03 21:59 | -40.29266 | 43.59797 | 31000 ft | 499 kts | 129° |
| 2026-05-03 22:00 | -40.33700 | 43.66793 | 31000 ft | 499 kts | 129° |
| 2026-05-03 22:00 | -40.38130 | 43.73797 | 30999 ft | 499 kts | 129° |
| 2026-05-03 22:01 | -40.42553 | 43.80807 | 31000 ft | 499 kts | 129° |
| 2026-05-03 22:01 | -40.46942 | 43.87780 | 31000 ft | 499 kts | 129° |
| 2026-05-03 22:02 | -40.51362 | 43.94816 | 31000 ft | 499 kts | 129° |
| 2026-05-03 22:02 | -40.55768 | 44.01847 | 31000 ft | 499 kts | 129° |
| 2026-05-03 22:03 | -40.60180 | 44.08903 | 31000 ft | 499 kts | 129° |
| 2026-05-03 22:03 | -40.64577 | 44.15951 | 31000 ft | 499 kts | 129° |
| 2026-05-03 22:04 | -40.68977 | 44.23021 | 31000 ft | 499 kts | 129° |
| 2026-05-03 22:04 | -40.73341 | 44.30049 | 31000 ft | 499 kts | 129° |
| 2026-05-03 22:05 | -40.77737 | 44.37144 | 31000 ft | 499 kts | 129° |
| 2026-05-03 22:05 | -40.82121 | 44.44237 | 31000 ft | 499 kts | 129° |
| 2026-05-03 22:06 | -40.86506 | 44.51348 | 31000 ft | 499 kts | 129° |
| 2026-05-03 22:06 | -40.90850 | 44.58408 | 30999 ft | 499 kts | 129° |
| 2026-05-03 22:07 | -40.95223 | 44.65533 | 31000 ft | 499 kts | 129° |
| 2026-05-03 22:07 | -40.99589 | 44.72661 | 31000 ft | 499 kts | 129° |
| 2026-05-03 22:08 | -41.03923 | 44.79756 | 31000 ft | 499 kts | 129° |
| 2026-05-03 22:08 | -41.06108 | 44.83338 | 30999 ft | 499 kts | 129° |
| 2026-05-03 22:10 | -41.19251 | 45.04976 | 31000 ft | 499 kts | 129° |
| 2026-05-03 22:10 | -41.23600 | 45.12169 | 31000 ft | 499 kts | 129° |
| 2026-05-03 22:11 | -41.27941 | 45.19367 | 31000 ft | 499 kts | 128° |
| 2026-05-03 22:11 | -41.31532 | 45.25335 | 31000 ft | 499 kts | 128° |
| 2026-05-03 22:12 | -41.35867 | 45.32553 | 31000 ft | 499 kts | 128° |
| 2026-05-03 22:12 | -41.40199 | 45.39785 | 31000 ft | 499 kts | 128° |
| 2026-05-03 22:13 | -41.45221 | 45.48188 | 31000 ft | 499 kts | 128° |
| 2026-05-03 22:13 | -41.49537 | 45.55430 | 31000 ft | 499 kts | 128° |
| 2026-05-03 22:14 | -41.53153 | 45.61510 | 31000 ft | 499 kts | 128° |
| 2026-05-03 22:14 | -41.57433 | 45.68723 | 31000 ft | 499 kts | 128° |
| 2026-05-03 22:15 | -41.61734 | 45.75989 | 31000 ft | 499 kts | 128° |
| 2026-05-03 22:15 | -41.66029 | 45.83261 | 31000 ft | 499 kts | 128° |
| 2026-05-03 22:16 | -41.70326 | 45.90555 | 31000 ft | 499 kts | 128° |
| 2026-05-03 22:16 | -41.74591 | 45.97811 | 31000 ft | 499 kts | 128° |
| 2026-05-03 22:17 | -41.78868 | 46.05107 | 31000 ft | 499 kts | 128° |
| 2026-05-03 22:17 | -41.83158 | 46.12441 | 31000 ft | 499 kts | 128° |
| 2026-05-03 22:18 | -41.87434 | 46.19769 | 31000 ft | 499 kts | 128° |
| 2026-05-03 22:18 | -41.91674 | 46.27053 | 31000 ft | 499 kts | 128° |
| 2026-05-03 22:19 | -41.95967 | 46.34371 | 31000 ft | 499 kts | 128° |
| 2026-05-03 22:19 | -42.00222 | 46.41732 | 30999 ft | 499 kts | 128° |
| 2026-05-03 22:20 | -42.04466 | 46.49107 | 31000 ft | 499 kts | 128° |
| 2026-05-03 22:20 | -42.08712 | 46.56495 | 31000 ft | 499 kts | 128° |
| 2026-05-03 22:21 | -42.12974 | 46.63864 | 30998 ft | 499 kts | 129° |
| 2026-05-03 22:21 | -42.17413 | 46.70976 | 31000 ft | 499 kts | 130° |
| 2026-05-03 22:22 | -42.21932 | 46.78076 | 31000 ft | 499 kts | 130° |
| 2026-05-03 22:22 | -42.26416 | 46.85218 | 31000 ft | 499 kts | 130° |
| 2026-05-03 22:23 | -42.30886 | 46.92389 | 31000 ft | 499 kts | 130° |
| 2026-05-03 22:23 | -42.35361 | 46.99568 | 30999 ft | 499 kts | 130° |
| 2026-05-03 22:24 | -42.39829 | 47.06655 | 31000 ft | 499 kts | 130° |
| 2026-05-03 22:24 | -42.44307 | 47.13828 | 31000 ft | 499 kts | 130° |
| 2026-05-03 22:25 | -42.48771 | 47.21021 | 31000 ft | 499 kts | 130° |
| 2026-05-03 22:25 | -42.53231 | 47.28233 | 31000 ft | 499 kts | 130° |
| 2026-05-03 22:26 | -42.57680 | 47.35450 | 31000 ft | 499 kts | 130° |
| 2026-05-03 22:26 | -42.62093 | 47.42624 | 31000 ft | 499 kts | 130° |
| 2026-05-03 22:27 | -42.66533 | 47.49862 | 31000 ft | 499 kts | 130° |
| 2026-05-03 22:27 | -42.70970 | 47.57114 | 31000 ft | 499 kts | 129° |
| 2026-05-03 22:28 | -42.75376 | 47.64331 | 31000 ft | 499 kts | 129° |
| 2026-05-03 22:28 | -42.79834 | 47.71653 | 31000 ft | 499 kts | 129° |
| 2026-05-03 22:29 | -42.84222 | 47.78877 | 31000 ft | 499 kts | 129° |
| 2026-05-03 22:29 | -42.88643 | 47.86172 | 31000 ft | 499 kts | 129° |
| 2026-05-03 22:30 | -42.93057 | 47.93474 | 31000 ft | 499 kts | 129° |
| 2026-05-03 22:30 | -42.97468 | 48.00791 | 31000 ft | 499 kts | 129° |
| 2026-05-03 22:31 | -43.01873 | 48.08115 | 31000 ft | 499 kts | 129° |
| 2026-05-03 22:31 | -43.06237 | 48.15390 | 31000 ft | 499 kts | 129° |
| 2026-05-03 22:32 | -43.10637 | 48.22741 | 31000 ft | 499 kts | 129° |
| 2026-05-03 22:32 | -43.15028 | 48.30097 | 31000 ft | 499 kts | 129° |
| 2026-05-03 22:33 | -43.19414 | 48.37464 | 31000 ft | 499 kts | 129° |
| 2026-05-03 22:33 | -43.23794 | 48.44838 | 31000 ft | 499 kts | 129° |
| 2026-05-03 22:34 | -43.28140 | 48.52173 | 31000 ft | 499 kts | 129° |
| 2026-05-03 22:34 | -43.32513 | 48.59572 | 31000 ft | 499 kts | 129° |
| 2026-05-03 22:35 | -43.36876 | 48.66974 | 31000 ft | 499 kts | 129° |
| 2026-05-03 22:35 | -43.41237 | 48.74391 | 31000 ft | 499 kts | 129° |
| 2026-05-03 22:36 | -43.45595 | 48.81822 | 31000 ft | 499 kts | 129° |
| 2026-05-03 22:36 | -43.49918 | 48.89212 | 31000 ft | 499 kts | 129° |
| 2026-05-03 22:37 | -43.54269 | 48.96668 | 31000 ft | 499 kts | 129° |
| 2026-05-03 22:37 | -43.58606 | 49.04119 | 31000 ft | 499 kts | 129° |
| 2026-05-03 22:38 | -43.62949 | 49.11601 | 31000 ft | 499 kts | 128° |
| 2026-05-03 22:38 | -43.67280 | 49.19080 | 31000 ft | 499 kts | 128° |
| 2026-05-03 22:39 | -43.71612 | 49.26581 | 31000 ft | 499 kts | 128° |
| 2026-05-03 22:39 | -43.75935 | 49.34085 | 31000 ft | 499 kts | 128° |
| 2026-05-03 22:40 | -43.80249 | 49.41593 | 31000 ft | 499 kts | 128° |
| 2026-05-03 22:40 | -43.84538 | 49.49076 | 31000 ft | 499 kts | 128° |
| 2026-05-03 22:41 | -43.88844 | 49.56610 | 31000 ft | 499 kts | 128° |
| 2026-05-03 22:41 | -43.93150 | 49.64162 | 31000 ft | 499 kts | 128° |
| 2026-05-03 22:42 | -43.97446 | 49.71717 | 31000 ft | 499 kts | 128° |
| 2026-05-03 22:42 | -44.01739 | 49.79286 | 31000 ft | 499 kts | 128° |
| 2026-05-03 22:43 | -44.06023 | 49.86859 | 31000 ft | 499 kts | 128° |
| 2026-05-03 22:43 | -44.10305 | 49.94448 | 31000 ft | 499 kts | 128° |
| 2026-05-03 22:44 | -44.14561 | 50.02010 | 31000 ft | 499 kts | 128° |
| 2026-05-03 22:44 | -44.18832 | 50.09620 | 31000 ft | 499 kts | 128° |
| 2026-05-03 22:45 | -44.23094 | 50.17232 | 31000 ft | 499 kts | 128° |
| 2026-05-03 22:45 | -44.27358 | 50.24870 | 31000 ft | 499 kts | 128° |
| 2026-05-03 22:46 | -44.31624 | 50.32531 | 31000 ft | 499 kts | 128° |
| 2026-05-03 22:46 | -44.35874 | 50.40183 | 31000 ft | 499 kts | 128° |
| 2026-05-03 22:47 | -44.40092 | 50.47798 | 31000 ft | 499 kts | 128° |
| 2026-05-03 22:47 | -44.44335 | 50.55480 | 31000 ft | 499 kts | 128° |
| 2026-05-03 22:48 | -44.48570 | 50.63166 | 31000 ft | 499 kts | 127° |
| 2026-05-03 22:48 | -44.52807 | 50.70876 | 31000 ft | 499 kts | 127° |
| 2026-05-03 22:49 | -44.57028 | 50.78578 | 31000 ft | 499 kts | 127° |
| 2026-05-03 22:49 | -44.61247 | 50.86297 | 31000 ft | 499 kts | 127° |
| 2026-05-03 22:50 | -44.65441 | 50.93991 | 31000 ft | 499 kts | 127° |
| 2026-05-03 22:50 | -44.69650 | 51.01734 | 31000 ft | 499 kts | 127° |
| 2026-05-03 22:51 | -44.73861 | 51.09501 | 31000 ft | 499 kts | 127° |
| 2026-05-03 22:51 | -44.78057 | 51.17262 | 31000 ft | 499 kts | 127° |
| 2026-05-03 22:52 | -44.82284 | 51.25018 | 31000 ft | 499 kts | 127° |
| 2026-05-03 22:52 | -44.86443 | 51.32756 | 31000 ft | 499 kts | 127° |
| 2026-05-03 22:53 | -44.90613 | 51.40568 | 31000 ft | 499 kts | 127° |
| 2026-05-03 22:53 | -44.94786 | 51.48400 | 31000 ft | 499 kts | 127° |
| 2026-05-03 22:54 | -44.98964 | 51.56212 | 31000 ft | 499 kts | 128° |
| 2026-05-03 22:54 | -45.03364 | 51.63722 | 31000 ft | 499 kts | 131° |
| 2026-05-03 22:55 | -45.07908 | 51.71123 | 31000 ft | 499 kts | 130° |
| 2026-05-03 22:55 | -45.12416 | 51.78587 | 31000 ft | 499 kts | 130° |
| 2026-05-03 22:56 | -45.16896 | 51.86090 | 31000 ft | 499 kts | 130° |
| 2026-05-03 22:56 | -45.21343 | 51.93562 | 30999 ft | 499 kts | 130° |
| 2026-05-03 22:57 | -45.25858 | 52.01034 | 31000 ft | 499 kts | 130° |
| 2026-05-03 22:57 | -45.30347 | 52.08542 | 31000 ft | 499 kts | 130° |
| 2026-05-03 22:58 | -45.34825 | 52.16084 | 31000 ft | 499 kts | 130° |
| 2026-05-03 22:58 | -45.39286 | 52.23630 | 31000 ft | 499 kts | 130° |
| 2026-05-03 22:59 | -45.43746 | 52.31198 | 31000 ft | 499 kts | 130° |
| 2026-05-03 22:59 | -45.48172 | 52.38731 | 31000 ft | 499 kts | 130° |
| 2026-05-03 23:00 | -45.52615 | 52.46313 | 31000 ft | 499 kts | 130° |
| 2026-05-03 23:00 | -45.57054 | 52.53910 | 31000 ft | 499 kts | 130° |
| 2026-05-03 23:01 | -45.61499 | 52.61536 | 31000 ft | 499 kts | 129° |
| 2026-05-03 23:01 | -45.65904 | 52.69115 | 31000 ft | 499 kts | 129° |
| 2026-05-03 23:02 | -45.70326 | 52.76746 | 31000 ft | 499 kts | 129° |
| 2026-05-03 23:02 | -45.74753 | 52.84404 | 31000 ft | 499 kts | 129° |
| 2026-05-03 23:03 | -45.79171 | 52.92067 | 31000 ft | 499 kts | 129° |
| 2026-05-03 23:03 | -45.83552 | 52.99688 | 31000 ft | 499 kts | 129° |
| 2026-05-03 23:04 | -45.87961 | 53.07379 | 31000 ft | 499 kts | 129° |
| 2026-05-03 23:04 | -45.92357 | 53.15068 | 31000 ft | 499 kts | 129° |
| 2026-05-03 23:05 | -45.96760 | 53.22790 | 31000 ft | 499 kts | 129° |
| 2026-05-03 23:05 | -46.01122 | 53.30463 | 31000 ft | 499 kts | 129° |
| 2026-05-03 23:06 | -46.05506 | 53.38195 | 31000 ft | 499 kts | 129° |
| 2026-05-03 23:06 | -46.09890 | 53.45947 | 31000 ft | 499 kts | 129° |
| 2026-05-03 23:07 | -46.14265 | 53.53706 | 31000 ft | 499 kts | 129° |
| 2026-05-03 23:07 | -46.18630 | 53.61470 | 31000 ft | 499 kts | 129° |
| 2026-05-03 23:08 | -46.22970 | 53.69209 | 31000 ft | 499 kts | 129° |
| 2026-05-03 23:08 | -46.27359 | 53.77059 | 31000 ft | 499 kts | 129° |
| 2026-05-03 23:09 | -46.31681 | 53.84811 | 31000 ft | 499 kts | 129° |
| 2026-05-03 23:09 | -46.36030 | 53.92631 | 31000 ft | 499 kts | 129° |
| 2026-05-03 23:10 | -46.40377 | 54.00473 | 31000 ft | 499 kts | 129° |
| 2026-05-03 23:10 | -46.44714 | 54.08316 | 31000 ft | 499 kts | 128° |
| 2026-05-03 23:11 | -46.49023 | 54.16132 | 31000 ft | 499 kts | 128° |
| 2026-05-03 23:11 | -46.53347 | 54.23996 | 31000 ft | 499 kts | 128° |
| 2026-05-03 23:12 | -46.57669 | 54.31880 | 31000 ft | 499 kts | 128° |
| 2026-05-03 23:12 | -46.61987 | 54.39780 | 31000 ft | 499 kts | 128° |
| 2026-05-03 23:13 | -46.66295 | 54.47682 | 31000 ft | 499 kts | 128° |
| 2026-05-03 23:13 | -46.70603 | 54.55608 | 31000 ft | 499 kts | 128° |
| 2026-05-03 23:14 | -46.74881 | 54.63502 | 31000 ft | 499 kts | 128° |
| 2026-05-03 23:14 | -46.79172 | 54.71442 | 31000 ft | 499 kts | 128° |
| 2026-05-03 23:15 | -46.83463 | 54.79404 | 31000 ft | 499 kts | 128° |
| 2026-05-03 23:15 | -46.87751 | 54.87384 | 31000 ft | 499 kts | 128° |
| 2026-05-03 23:16 | -46.92023 | 54.95358 | 31000 ft | 499 kts | 128° |
| 2026-05-03 23:16 | -46.96273 | 55.03313 | 31000 ft | 499 kts | 128° |
| 2026-05-03 23:17 | -47.00535 | 55.11314 | 31000 ft | 499 kts | 128° |
| 2026-05-03 23:17 | -47.04802 | 55.19348 | 31000 ft | 499 kts | 128° |
| 2026-05-03 23:18 | -47.09055 | 55.27378 | 31000 ft | 499 kts | 128° |
| 2026-05-03 23:18 | -47.13273 | 55.35366 | 31000 ft | 499 kts | 128° |
| 2026-05-03 23:19 | -47.17520 | 55.43432 | 31000 ft | 499 kts | 128° |
| 2026-05-03 23:19 | -47.21766 | 55.51519 | 31000 ft | 499 kts | 127° |
| 2026-05-03 23:20 | -47.25994 | 55.59596 | 31000 ft | 499 kts | 127° |
| 2026-05-03 23:20 | -47.30196 | 55.67649 | 31000 ft | 499 kts | 127° |
| 2026-05-03 23:21 | -47.34420 | 55.75767 | 31000 ft | 499 kts | 127° |
| 2026-05-03 23:21 | -47.38637 | 55.83894 | 31000 ft | 499 kts | 127° |
| 2026-05-03 23:22 | -47.44947 | 55.96101 | 31000 ft | 499 kts | 127° |
| 2026-05-03 23:22 | -47.49117 | 56.04199 | 31000 ft | 499 kts | 127° |
| 2026-05-03 23:23 | -47.53316 | 56.12377 | 31000 ft | 499 kts | 127° |
| 2026-05-03 23:23 | -47.57532 | 56.20552 | 31000 ft | 499 kts | 127° |
| 2026-05-03 23:24 | -47.61726 | 56.28724 | 31000 ft | 499 kts | 127° |
| 2026-05-03 23:24 | -47.65868 | 56.36903 | 31000 ft | 499 kts | 127° |
| 2026-05-03 23:25 | -47.70024 | 56.45135 | 31000 ft | 499 kts | 127° |
| 2026-05-03 23:25 | -47.74188 | 56.53383 | 31000 ft | 499 kts | 127° |
| 2026-05-03 23:26 | -47.78423 | 56.61544 | 31000 ft | 499 kts | 128° |
| 2026-05-03 23:26 | -47.82711 | 56.69664 | 31000 ft | 499 kts | 128° |
| 2026-05-03 23:27 | -47.86977 | 56.77806 | 30999 ft | 499 kts | 128° |
| 2026-05-03 23:27 | -47.91237 | 56.85976 | 31000 ft | 499 kts | 128° |
| 2026-05-03 23:28 | -47.95452 | 56.94094 | 31000 ft | 499 kts | 128° |
| 2026-05-03 23:28 | -47.99744 | 57.02234 | 31000 ft | 499 kts | 128° |
| 2026-05-03 23:29 | -48.04027 | 57.10378 | 31000 ft | 499 kts | 128° |
| 2026-05-03 23:29 | -48.08288 | 57.18563 | 31000 ft | 499 kts | 128° |
| 2026-05-03 23:30 | -48.12539 | 57.26777 | 31000 ft | 499 kts | 128° |
| 2026-05-03 23:30 | -48.16750 | 57.34944 | 31000 ft | 499 kts | 127° |
| 2026-05-03 23:31 | -48.20982 | 57.43179 | 31000 ft | 499 kts | 127° |
| 2026-05-03 23:31 | -48.25211 | 57.51435 | 31000 ft | 499 kts | 127° |
| 2026-05-03 23:32 | -48.29433 | 57.59701 | 31000 ft | 499 kts | 127° |
| 2026-05-03 23:32 | -48.33614 | 57.67915 | 31000 ft | 499 kts | 127° |
| 2026-05-03 23:33 | -48.37824 | 57.76209 | 31000 ft | 499 kts | 127° |
| 2026-05-03 23:33 | -48.42028 | 57.84517 | 31000 ft | 499 kts | 127° |
| 2026-05-03 23:34 | -48.46224 | 57.92834 | 31000 ft | 499 kts | 127° |
| 2026-05-03 23:34 | -48.50418 | 58.01173 | 31000 ft | 499 kts | 127° |
| 2026-05-03 23:35 | -48.54603 | 58.09522 | 31000 ft | 499 kts | 127° |
| 2026-05-03 23:35 | -48.58783 | 58.17884 | 31000 ft | 499 kts | 127° |
| 2026-05-03 23:36 | -48.62921 | 58.26190 | 30999 ft | 499 kts | 127° |
| 2026-05-03 23:36 | -48.67094 | 58.34591 | 31000 ft | 499 kts | 127° |
| 2026-05-03 23:37 | -48.71247 | 58.42978 | 31000 ft | 499 kts | 127° |
| 2026-05-03 23:37 | -48.75405 | 58.51402 | 31000 ft | 499 kts | 127° |
| 2026-05-03 23:38 | -48.79548 | 58.59822 | 31000 ft | 499 kts | 127° |
| 2026-05-03 23:38 | -48.83702 | 58.68288 | 31000 ft | 499 kts | 127° |
| 2026-05-03 23:39 | -48.87809 | 58.76687 | 31000 ft | 499 kts | 126° |
| 2026-05-03 23:39 | -48.91935 | 58.85153 | 31000 ft | 499 kts | 126° |
| 2026-05-03 23:40 | -48.96056 | 58.93633 | 31000 ft | 499 kts | 126° |
| 2026-05-03 23:40 | -49.00177 | 59.02141 | 31000 ft | 499 kts | 126° |
| 2026-05-03 23:41 | -49.04285 | 59.10647 | 31000 ft | 499 kts | 126° |
| 2026-05-03 23:41 | -49.08365 | 59.19125 | 31000 ft | 499 kts | 126° |
| 2026-05-03 23:42 | -49.12462 | 59.27664 | 31000 ft | 499 kts | 126° |
| 2026-05-03 23:42 | -49.16559 | 59.36230 | 31000 ft | 499 kts | 126° |
| 2026-05-03 23:43 | -49.20645 | 59.44799 | 31000 ft | 499 kts | 126° |
| 2026-05-03 23:43 | -49.24700 | 59.53332 | 31000 ft | 499 kts | 126° |
| 2026-05-03 23:44 | -49.28770 | 59.61925 | 31000 ft | 499 kts | 126° |
| 2026-05-03 23:44 | -49.32836 | 59.70537 | 31000 ft | 499 kts | 126° |
| 2026-05-03 23:45 | -49.36895 | 59.79160 | 31000 ft | 499 kts | 126° |
| 2026-05-03 23:45 | -49.40953 | 59.87809 | 31000 ft | 499 kts | 126° |
| 2026-05-03 23:46 | -49.44973 | 59.96407 | 31000 ft | 499 kts | 126° |
| 2026-05-03 23:46 | -49.49010 | 60.05068 | 30999 ft | 499 kts | 126° |
| 2026-05-03 23:47 | -49.53045 | 60.13753 | 31000 ft | 499 kts | 125° |
| 2026-05-03 23:47 | -49.57076 | 60.22456 | 31000 ft | 499 kts | 125° |
| 2026-05-03 23:48 | -49.61096 | 60.31167 | 31000 ft | 499 kts | 125° |
| 2026-05-03 23:48 | -49.65085 | 60.39838 | 31000 ft | 499 kts | 125° |
| 2026-05-03 23:49 | -49.69094 | 60.48579 | 31000 ft | 499 kts | 125° |
| 2026-05-03 23:49 | -49.73096 | 60.57335 | 30999 ft | 499 kts | 125° |
| 2026-05-03 23:50 | -49.76418 | 60.64625 | 31000 ft | 499 kts | 125° |
| 2026-05-03 23:50 | -49.81050 | 60.74825 | 31000 ft | 499 kts | 125° |
| 2026-05-03 23:51 | -49.85035 | 60.83629 | 31000 ft | 499 kts | 125° |
| 2026-05-03 23:51 | -49.89008 | 60.92439 | 31000 ft | 499 kts | 125° |
| 2026-05-03 23:52 | -49.92977 | 61.01267 | 31000 ft | 499 kts | 125° |
| 2026-05-03 23:52 | -49.96938 | 61.10108 | 30999 ft | 499 kts | 124° |
| 2026-05-03 23:53 | -50.00900 | 61.18980 | 31000 ft | 499 kts | 124° |
| 2026-05-03 23:53 | -50.04817 | 61.27782 | 31000 ft | 499 kts | 124° |
| 2026-05-03 23:54 | -50.08763 | 61.36676 | 31000 ft | 499 kts | 124° |
| 2026-05-03 23:54 | -50.12695 | 61.45572 | 31000 ft | 499 kts | 124° |
| 2026-05-03 23:55 | -50.16627 | 61.54495 | 31000 ft | 499 kts | 124° |
| 2026-05-03 23:55 | -50.20519 | 61.63358 | 31000 ft | 499 kts | 124° |
| 2026-05-03 23:56 | -50.24435 | 61.72306 | 31000 ft | 499 kts | 124° |
| 2026-05-03 23:56 | -50.28339 | 61.81259 | 31000 ft | 499 kts | 124° |
| 2026-05-03 23:57 | -50.32242 | 61.90237 | 31000 ft | 499 kts | 124° |
| 2026-05-03 23:57 | -50.36136 | 61.99226 | 31000 ft | 499 kts | 124° |
| 2026-05-03 23:58 | -50.39997 | 62.08171 | 31000 ft | 499 kts | 124° |
| 2026-05-03 23:58 | -50.43894 | 62.17149 | 31001 ft | 499 kts | 124° |
| 2026-05-03 23:59 | -50.47791 | 62.26180 | 31000 ft | 499 kts | 124° |
| 2026-05-03 23:59 | -50.51641 | 62.35244 | 31000 ft | 499 kts | 123° |
| 2026-05-04 00:00 | -50.55483 | 62.44319 | 31000 ft | 499 kts | 123° |
| 2026-05-04 00:00 | -50.59328 | 62.53403 | 31000 ft | 499 kts | 123° |
| 2026-05-04 00:01 | -50.63048 | 62.62512 | 31000 ft | 499 kts | 122° |
| 2026-05-04 00:01 | -50.66678 | 62.71854 | 31000 ft | 499 kts | 121° |
| 2026-05-04 00:02 | -50.70298 | 62.81191 | 31000 ft | 499 kts | 121° |
| 2026-05-04 00:02 | -50.73916 | 62.90525 | 31000 ft | 499 kts | 121° |
| 2026-05-04 00:03 | -50.76918 | 62.98285 | 31000 ft | 499 kts | 121° |
| 2026-05-04 00:03 | -50.81200 | 63.09171 | 30999 ft | 499 kts | 122° |
| 2026-05-04 00:04 | -50.84257 | 63.16922 | 31000 ft | 499 kts | 122° |
| 2026-05-04 00:04 | -50.87895 | 63.26267 | 31000 ft | 499 kts | 121° |
| 2026-05-04 00:05 | -50.91509 | 63.35621 | 31000 ft | 499 kts | 121° |
| 2026-05-04 00:05 | -50.95124 | 63.45025 | 31000 ft | 499 kts | 121° |
| 2026-05-04 00:06 | -50.98725 | 63.54430 | 31000 ft | 499 kts | 121° |
| 2026-05-04 00:06 | -51.02296 | 63.63795 | 31000 ft | 499 kts | 121° |
| 2026-05-04 00:07 | -51.05881 | 63.73229 | 31000 ft | 499 kts | 121° |
| 2026-05-04 00:07 | -51.09457 | 63.82677 | 31000 ft | 499 kts | 121° |
| 2026-05-04 00:08 | -51.13023 | 63.92130 | 31000 ft | 499 kts | 121° |
| 2026-05-04 00:08 | -51.16589 | 64.01621 | 31000 ft | 499 kts | 121° |
| 2026-05-04 00:09 | -51.20123 | 64.11059 | 31000 ft | 499 kts | 121° |
| 2026-05-04 00:09 | -51.23663 | 64.20549 | 31000 ft | 499 kts | 121° |
| 2026-05-04 00:10 | -51.27201 | 64.30071 | 31000 ft | 499 kts | 121° |
| 2026-05-04 00:10 | -51.30744 | 64.39640 | 31000 ft | 499 kts | 120° |
| 2026-05-04 00:11 | -51.34266 | 64.49187 | 31000 ft | 499 kts | 120° |
| 2026-05-04 00:11 | -51.37780 | 64.58751 | 31000 ft | 499 kts | 120° |
| 2026-05-04 00:12 | -51.41270 | 64.68283 | 31000 ft | 499 kts | 120° |
| 2026-05-04 00:12 | -51.44769 | 64.77878 | 31000 ft | 499 kts | 120° |
| 2026-05-04 00:13 | -51.48262 | 64.87490 | 31000 ft | 499 kts | 120° |
| 2026-05-04 00:13 | -51.51724 | 64.97053 | 31000 ft | 499 kts | 120° |
| 2026-05-04 00:14 | -51.55200 | 65.06692 | 31000 ft | 499 kts | 120° |
| 2026-05-04 00:14 | -51.58671 | 65.16353 | 31000 ft | 499 kts | 120° |
| 2026-05-04 00:15 | -51.62128 | 65.26012 | 31000 ft | 499 kts | 120° |
| 2026-05-04 00:15 | -51.65587 | 65.35715 | 31000 ft | 499 kts | 120° |
| 2026-05-04 00:16 | -51.69008 | 65.45349 | 31000 ft | 499 kts | 120° |
| 2026-05-04 00:16 | -51.72443 | 65.55055 | 31000 ft | 499 kts | 120° |
| 2026-05-04 00:17 | -51.75850 | 65.64722 | 31000 ft | 499 kts | 120° |
| 2026-05-04 00:17 | -51.79296 | 65.74539 | 31000 ft | 499 kts | 119° |
| 2026-05-04 00:18 | -51.82684 | 65.84227 | 31000 ft | 499 kts | 119° |
| 2026-05-04 00:18 | -51.86086 | 65.93992 | 31000 ft | 499 kts | 119° |
| 2026-05-04 00:19 | -51.89486 | 66.03790 | 31000 ft | 499 kts | 119° |
| 2026-05-04 00:19 | -51.92874 | 66.13591 | 31000 ft | 499 kts | 119° |
| 2026-05-04 00:20 | -51.96258 | 66.23419 | 31000 ft | 499 kts | 119° |
| 2026-05-04 00:20 | -51.99597 | 66.33152 | 30999 ft | 499 kts | 119° |
| 2026-05-04 00:21 | -52.02967 | 66.43016 | 31000 ft | 499 kts | 119° |
| 2026-05-04 00:21 | -52.06327 | 66.52891 | 31000 ft | 499 kts | 119° |
| 2026-05-04 00:22 | -52.09672 | 66.62762 | 31000 ft | 499 kts | 118° |
| 2026-05-04 00:22 | -52.12991 | 66.72593 | 31000 ft | 499 kts | 118° |
| 2026-05-04 00:23 | -52.16319 | 66.82489 | 31000 ft | 499 kts | 118° |
| 2026-05-04 00:23 | -52.19647 | 66.92427 | 31000 ft | 499 kts | 118° |
| 2026-05-04 00:24 | -52.22955 | 67.02343 | 31000 ft | 499 kts | 118° |
| 2026-05-04 00:24 | -52.26243 | 67.12238 | 30999 ft | 499 kts | 118° |
| 2026-05-04 00:25 | -52.29544 | 67.22213 | 31000 ft | 499 kts | 118° |
| 2026-05-04 00:25 | -52.32834 | 67.32195 | 31000 ft | 499 kts | 118° |
| 2026-05-04 00:26 | -52.36113 | 67.42184 | 30999 ft | 499 kts | 118° |
| 2026-05-04 00:26 | -52.39387 | 67.52198 | 31000 ft | 499 kts | 118° |
| 2026-05-04 00:27 | -52.42628 | 67.62154 | 31000 ft | 499 kts | 118° |
| 2026-05-04 00:27 | -52.45886 | 67.72199 | 31000 ft | 499 kts | 118° |
| 2026-05-04 00:28 | -52.49131 | 67.82249 | 31000 ft | 499 kts | 118° |
| 2026-05-04 00:28 | -52.52366 | 67.92308 | 31000 ft | 499 kts | 117° |
| 2026-05-04 00:29 | -52.55598 | 68.02396 | 31000 ft | 499 kts | 117° |
| 2026-05-04 00:29 | -52.58802 | 68.12439 | 31000 ft | 499 kts | 117° |
| 2026-05-04 00:30 | -52.62036 | 68.22621 | 31000 ft | 499 kts | 117° |
| 2026-05-04 00:30 | -52.65215 | 68.32669 | 31000 ft | 499 kts | 117° |
| 2026-05-04 00:31 | -52.68410 | 68.42812 | 31000 ft | 499 kts | 117° |
| 2026-05-04 00:31 | -52.71602 | 68.52987 | 31000 ft | 499 kts | 117° |
| 2026-05-04 00:32 | -52.74761 | 68.63095 | 31000 ft | 499 kts | 117° |
| 2026-05-04 00:32 | -52.77928 | 68.73276 | 31000 ft | 499 kts | 117° |
| 2026-05-04 00:33 | -52.82719 | 68.88535 | 31000 ft | 499 kts | 117° |
| 2026-05-04 00:34 | -52.85846 | 68.98769 | 31000 ft | 499 kts | 117° |
| 2026-05-04 00:34 | -52.88968 | 69.09035 | 31000 ft | 499 kts | 116° |
| 2026-05-04 00:35 | -52.92066 | 69.19232 | 31000 ft | 499 kts | 116° |
| 2026-05-04 00:35 | -52.94811 | 69.29781 | 30999 ft | 499 kts | 110° |
| 2026-05-04 00:36 | -52.97066 | 69.40665 | 31000 ft | 499 kts | 108° |
| 2026-05-04 00:36 | -52.99174 | 69.51634 | 31000 ft | 499 kts | 108° |
| 2026-05-04 00:37 | -53.01313 | 69.62505 | 31000 ft | 499 kts | 108° |
| 2026-05-04 00:37 | -53.03482 | 69.73431 | 31000 ft | 499 kts | 108° |
| 2026-05-04 00:38 | -53.05710 | 69.84367 | 30999 ft | 499 kts | 109° |
| 2026-05-04 00:38 | -53.07974 | 69.95260 | 31000 ft | 499 kts | 109° |
| 2026-05-04 00:39 | -53.10192 | 70.06203 | 31000 ft | 499 kts | 108° |
| 2026-05-04 00:39 | -53.12365 | 70.17073 | 31000 ft | 499 kts | 108° |
| 2026-05-04 00:40 | -53.14541 | 70.28050 | 31000 ft | 499 kts | 108° |
| 2026-05-04 00:40 | -53.16704 | 70.39028 | 31000 ft | 499 kts | 108° |
| 2026-05-04 00:41 | -53.18856 | 70.50020 | 31000 ft | 499 kts | 108° |
| 2026-05-04 00:41 | -53.20999 | 70.61029 | 31000 ft | 499 kts | 108° |
| 2026-05-04 00:42 | -53.23116 | 70.71964 | 31000 ft | 499 kts | 108° |
| 2026-05-04 00:42 | -53.25239 | 70.82997 | 31000 ft | 499 kts | 108° |
| 2026-05-04 00:43 | -53.27350 | 70.94033 | 31000 ft | 499 kts | 108° |
| 2026-05-04 00:43 | -53.29438 | 71.05005 | 31000 ft | 499 kts | 107° |
| 2026-05-04 00:44 | -53.31526 | 71.16048 | 31000 ft | 499 kts | 107° |
| 2026-05-04 00:44 | -53.33605 | 71.27105 | 31000 ft | 499 kts | 107° |
| 2026-05-04 00:45 | -53.35676 | 71.38188 | 31000 ft | 499 kts | 107° |
| 2026-05-04 00:45 | -53.37742 | 71.49306 | 31000 ft | 499 kts | 107° |
| 2026-05-04 00:46 | -53.39787 | 71.60380 | 31000 ft | 499 kts | 107° |
| 2026-05-04 00:46 | -53.41830 | 71.71508 | 31000 ft | 499 kts | 107° |
| 2026-05-04 00:47 | -53.43845 | 71.82549 | 31000 ft | 499 kts | 107° |
| 2026-05-04 00:47 | -53.45866 | 71.93695 | 31000 ft | 499 kts | 107° |
| 2026-05-04 00:48 | -53.47872 | 72.04820 | 30999 ft | 499 kts | 107° |
| 2026-05-04 00:48 | -53.49857 | 72.15898 | 31000 ft | 499 kts | 107° |
| 2026-05-04 00:49 | -53.51848 | 72.27079 | 31000 ft | 499 kts | 107° |
| 2026-05-04 00:49 | -53.53826 | 72.38252 | 31000 ft | 499 kts | 106° |
| 2026-05-04 00:50 | -53.55794 | 72.49441 | 31000 ft | 499 kts | 106° |
| 2026-05-04 00:50 | -53.57749 | 72.60626 | 31000 ft | 499 kts | 106° |
| 2026-05-04 00:51 | -53.59695 | 72.71832 | 31000 ft | 499 kts | 106° |
| 2026-05-04 00:51 | -53.61620 | 72.82983 | 31000 ft | 499 kts | 106° |
| 2026-05-04 00:52 | -53.63543 | 72.94196 | 31000 ft | 499 kts | 106° |
| 2026-05-04 00:52 | -53.65459 | 73.05438 | 31000 ft | 499 kts | 106° |
| 2026-05-04 00:53 | -53.67362 | 73.16676 | 31000 ft | 499 kts | 106° |
| 2026-05-04 00:53 | -53.69254 | 73.27918 | 31000 ft | 499 kts | 105° |
| 2026-05-04 00:54 | -53.71126 | 73.39117 | 31000 ft | 499 kts | 105° |
| 2026-05-04 00:54 | -53.72999 | 73.50396 | 31000 ft | 499 kts | 105° |
| 2026-05-04 00:55 | -53.74862 | 73.61686 | 31000 ft | 499 kts | 105° |
| 2026-05-04 00:55 | -53.76704 | 73.72919 | 31000 ft | 499 kts | 105° |
| 2026-05-04 00:56 | -53.78544 | 73.84223 | 31000 ft | 499 kts | 105° |
| 2026-05-04 00:56 | -53.80375 | 73.95542 | 31000 ft | 499 kts | 105° |
| 2026-05-04 00:57 | -53.82195 | 74.06868 | 31000 ft | 499 kts | 105° |
| 2026-05-04 00:57 | -53.84005 | 74.18206 | 31000 ft | 499 kts | 105° |
| 2026-05-04 00:58 | -53.85787 | 74.29449 | 31000 ft | 499 kts | 105° |
| 2026-05-04 00:58 | -53.87580 | 74.40833 | 31000 ft | 499 kts | 105° |
| 2026-05-04 00:59 | -53.89390 | 74.52183 | 31000 ft | 499 kts | 105° |
| 2026-05-04 00:59 | -53.91188 | 74.63540 | 31000 ft | 499 kts | 104° |
| 2026-05-04 01:00 | -53.92905 | 74.74857 | 31000 ft | 499 kts | 104° |
| 2026-05-04 01:00 | -53.94628 | 74.86264 | 31000 ft | 499 kts | 104° |
| 2026-05-04 01:01 | -53.96347 | 74.97651 | 31000 ft | 499 kts | 104° |
| 2026-05-04 01:01 | -53.97991 | 75.09113 | 31000 ft | 499 kts | 103° |
| 2026-05-04 01:02 | -53.99541 | 75.20589 | 31000 ft | 499 kts | 103° |
| 2026-05-04 01:02 | -54.01183 | 75.31977 | 30999 ft | 499 kts | 103° |
| 2026-05-04 01:03 | -54.02740 | 75.43460 | 31000 ft | 499 kts | 103° |
| 2026-05-04 01:03 | -54.04270 | 75.54972 | 31000 ft | 499 kts | 103° |
| 2026-05-04 01:04 | -54.05788 | 75.66421 | 30999 ft | 499 kts | 103° |
| 2026-05-04 01:04 | -54.07330 | 75.78019 | 30998 ft | 499 kts | 102° |
| 2026-05-04 01:05 | -54.08781 | 75.89480 | 31000 ft | 499 kts | 102° |
| 2026-05-04 01:05 | -54.10218 | 76.01020 | 31000 ft | 499 kts | 102° |
| 2026-05-04 01:06 | -54.11649 | 76.12613 | 31000 ft | 499 kts | 102° |
| 2026-05-04 01:06 | -54.13056 | 76.24111 | 31000 ft | 499 kts | 102° |
| 2026-05-04 01:07 | -54.14490 | 76.35669 | 30999 ft | 499 kts | 102° |
| 2026-05-04 01:07 | -54.16009 | 76.47227 | 31000 ft | 499 kts | 102° |
| 2026-05-04 01:08 | -54.17470 | 76.58803 | 31000 ft | 499 kts | 102° |
| 2026-05-04 01:08 | -54.18892 | 76.70375 | 30999 ft | 499 kts | 102° |
| 2026-05-04 01:09 | -54.20299 | 76.81984 | 31000 ft | 499 kts | 102° |
| 2026-05-04 01:09 | -54.21682 | 76.93513 | 31000 ft | 499 kts | 101° |
| 2026-05-04 01:10 | -54.23062 | 77.05134 | 31000 ft | 499 kts | 101° |
| 2026-05-04 01:10 | -54.24431 | 77.16762 | 31000 ft | 499 kts | 101° |
| 2026-05-04 01:11 | -54.25777 | 77.28305 | 31000 ft | 499 kts | 101° |
| 2026-05-04 01:11 | -54.27123 | 77.39942 | 31000 ft | 499 kts | 101° |
| 2026-05-04 01:12 | -54.28459 | 77.51599 | 31000 ft | 499 kts | 101° |
| 2026-05-04 01:12 | -54.29781 | 77.63243 | 31000 ft | 499 kts | 101° |
| 2026-05-04 01:13 | -54.31084 | 77.74824 | 31000 ft | 499 kts | 101° |
| 2026-05-04 01:13 | -54.32387 | 77.86510 | 31000 ft | 499 kts | 101° |
| 2026-05-04 01:14 | -54.33676 | 77.98178 | 31000 ft | 499 kts | 101° |
| 2026-05-04 01:14 | -54.34955 | 78.09866 | 31000 ft | 499 kts | 101° |
| 2026-05-04 01:15 | -54.36213 | 78.21473 | 31000 ft | 499 kts | 100° |
| 2026-05-04 01:15 | -54.37470 | 78.33181 | 31000 ft | 499 kts | 100° |
| 2026-05-04 01:16 | -54.38714 | 78.44882 | 31000 ft | 499 kts | 100° |
| 2026-05-04 01:16 | -54.39946 | 78.56583 | 31000 ft | 499 kts | 100° |
| 2026-05-04 01:17 | -54.41160 | 78.68230 | 31000 ft | 499 kts | 100° |
| 2026-05-04 01:17 | -54.42372 | 78.79968 | 31000 ft | 499 kts | 100° |
| 2026-05-04 01:18 | -54.43570 | 78.91688 | 31000 ft | 499 kts | 100° |
| 2026-05-04 01:18 | -54.44758 | 79.03425 | 31000 ft | 499 kts | 99° |
| 2026-05-04 01:19 | -54.45927 | 79.15099 | 31000 ft | 499 kts | 99° |
| 2026-05-04 01:19 | -54.47093 | 79.26858 | 31000 ft | 499 kts | 99° |
| 2026-05-04 01:20 | -54.48247 | 79.38621 | 31000 ft | 499 kts | 99° |
| 2026-05-04 01:20 | -54.49388 | 79.50376 | 31000 ft | 499 kts | 99° |
| 2026-05-04 01:21 | -54.50511 | 79.62068 | 31000 ft | 499 kts | 99° |
| 2026-05-04 01:21 | -54.51629 | 79.73835 | 31000 ft | 499 kts | 99° |
| 2026-05-04 01:22 | -54.52739 | 79.85636 | 31000 ft | 499 kts | 99° |
| 2026-05-04 01:22 | -54.53834 | 79.97411 | 31000 ft | 499 kts | 99° |
| 2026-05-04 01:23 | -54.54922 | 80.09236 | 31000 ft | 499 kts | 99° |
| 2026-05-04 01:23 | -54.55987 | 80.20951 | 31000 ft | 499 kts | 99° |
| 2026-05-04 01:24 | -54.57051 | 80.32777 | 31000 ft | 499 kts | 98° |
| 2026-05-04 01:24 | -54.58100 | 80.44580 | 31000 ft | 499 kts | 98° |
| 2026-05-04 01:25 | -54.59134 | 80.56339 | 31000 ft | 499 kts | 98° |
| 2026-05-04 01:25 | -54.60160 | 80.68154 | 31000 ft | 499 kts | 98° |
| 2026-05-04 01:26 | -54.61178 | 80.80005 | 31000 ft | 499 kts | 98° |
| 2026-05-04 01:26 | -54.62183 | 80.91846 | 31000 ft | 499 kts | 98° |
| 2026-05-04 01:27 | -54.63175 | 81.03679 | 31000 ft | 499 kts | 98° |
| 2026-05-04 01:27 | -54.64151 | 81.15470 | 31000 ft | 499 kts | 98° |
| 2026-05-04 01:28 | -54.65120 | 81.27308 | 31000 ft | 499 kts | 98° |
| 2026-05-04 01:28 | -54.66079 | 81.39183 | 31000 ft | 499 kts | 98° |
| 2026-05-04 01:29 | -54.67025 | 81.51038 | 31000 ft | 499 kts | 98° |
| 2026-05-04 01:29 | -54.67961 | 81.62921 | 31000 ft | 499 kts | 97° |
| 2026-05-04 01:30 | -54.68879 | 81.74725 | 31000 ft | 499 kts | 97° |
| 2026-05-04 01:30 | -54.69791 | 81.86617 | 31000 ft | 499 kts | 97° |
| 2026-05-04 01:31 | -54.70691 | 81.98499 | 31000 ft | 499 kts | 97° |
| 2026-05-04 01:31 | -54.71580 | 82.10399 | 31000 ft | 499 kts | 97° |
| 2026-05-04 01:32 | -54.72453 | 82.22232 | 31000 ft | 499 kts | 97° |
| 2026-05-04 01:32 | -54.73317 | 82.34127 | 31000 ft | 499 kts | 97° |
| 2026-05-04 01:33 | -54.74171 | 82.46037 | 31000 ft | 499 kts | 97° |
| 2026-05-04 01:33 | -54.75013 | 82.57948 | 31000 ft | 499 kts | 97° |
| 2026-05-04 01:34 | -54.75845 | 82.69881 | 31000 ft | 499 kts | 97° |
| 2026-05-04 01:34 | -54.76658 | 82.81725 | 31000 ft | 499 kts | 97° |
| 2026-05-04 01:35 | -54.77465 | 82.93646 | 31000 ft | 499 kts | 96° |
| 2026-05-04 01:35 | -54.78261 | 83.05583 | 31000 ft | 499 kts | 96° |
| 2026-05-04 01:36 | -54.79046 | 83.17544 | 31000 ft | 499 kts | 96° |
| 2026-05-04 01:36 | -54.79818 | 83.29486 | 31000 ft | 499 kts | 96° |
| 2026-05-04 01:37 | -54.80574 | 83.41352 | 31000 ft | 499 kts | 96° |
| 2026-05-04 01:37 | -54.81323 | 83.53307 | 31000 ft | 499 kts | 96° |
| 2026-05-04 01:38 | -54.82099 | 83.65258 | 31001 ft | 499 kts | 97° |
| 2026-05-04 01:38 | -54.82858 | 83.77222 | 30999 ft | 499 kts | 96° |
| 2026-05-04 01:39 | -54.83536 | 83.89100 | 31000 ft | 499 kts | 95° |
| 2026-05-04 01:39 | -54.84212 | 84.01063 | 31000 ft | 499 kts | 95° |
| 2026-05-04 01:40 | -54.84890 | 84.13032 | 31000 ft | 499 kts | 95° |
| 2026-05-04 01:40 | -54.85480 | 84.25055 | 31000 ft | 499 kts | 94° |
| 2026-05-04 01:41 | -54.85959 | 84.37073 | 31000 ft | 499 kts | 94° |
| 2026-05-04 01:41 | -54.86427 | 84.48998 | 31000 ft | 499 kts | 94° |
| 2026-05-04 01:42 | -54.86890 | 84.60992 | 31000 ft | 499 kts | 94° |
| 2026-05-04 01:42 | -54.87343 | 84.73025 | 31000 ft | 499 kts | 94° |
| 2026-05-04 01:43 | -54.87879 | 84.85031 | 30999 ft | 499 kts | 95° |
| 2026-05-04 01:43 | -54.88413 | 84.97028 | 31000 ft | 499 kts | 94° |
| 2026-05-04 01:44 | -54.88889 | 85.08977 | 31000 ft | 499 kts | 94° |
| 2026-05-04 01:44 | -54.89341 | 85.20999 | 30999 ft | 499 kts | 94° |
| 2026-05-04 01:45 | -54.89778 | 85.33032 | 31000 ft | 499 kts | 94° |
| 2026-05-04 01:45 | -54.90408 | 85.51063 | 31000 ft | 499 kts | 93° |
| 2026-05-04 01:46 | -54.90811 | 85.63028 | 31000 ft | 499 kts | 93° |
| 2026-05-04 01:46 | -54.91204 | 85.75058 | 31000 ft | 499 kts | 93° |
| 2026-05-04 01:47 | -54.91586 | 85.87109 | 31000 ft | 499 kts | 93° |
| 2026-05-04 01:47 | -54.91955 | 85.99146 | 31000 ft | 499 kts | 93° |
| 2026-05-04 01:48 | -54.92312 | 86.11171 | 31000 ft | 499 kts | 93° |
| 2026-05-04 01:48 | -54.92656 | 86.23151 | 31000 ft | 499 kts | 92° |
| 2026-05-04 01:49 | -54.92990 | 86.35195 | 31000 ft | 499 kts | 92° |
| 2026-05-04 01:49 | -54.93312 | 86.47238 | 31000 ft | 499 kts | 92° |
| 2026-05-04 01:50 | -54.93622 | 86.59290 | 31000 ft | 499 kts | 92° |
| 2026-05-04 01:50 | -54.93919 | 86.71264 | 31000 ft | 499 kts | 92° |
| 2026-05-04 01:51 | -54.94205 | 86.83307 | 31000 ft | 499 kts | 92° |
| 2026-05-04 01:51 | -54.94479 | 86.95358 | 31000 ft | 499 kts | 92° |
| 2026-05-04 01:52 | -54.94742 | 87.07431 | 31000 ft | 499 kts | 92° |
| 2026-05-04 01:52 | -54.94992 | 87.19481 | 31000 ft | 499 kts | 92° |
| 2026-05-04 01:53 | -54.95230 | 87.31457 | 31000 ft | 499 kts | 92° |
| 2026-05-04 01:53 | -54.95456 | 87.43508 | 31000 ft | 499 kts | 92° |
| 2026-05-04 01:54 | -54.95672 | 87.55572 | 31000 ft | 499 kts | 91° |
| 2026-05-04 01:54 | -54.95875 | 87.67632 | 31000 ft | 499 kts | 91° |
| 2026-05-04 01:55 | -54.96127 | 87.79705 | 30999 ft | 499 kts | 92° |
| 2026-05-04 01:55 | -54.96310 | 87.91686 | 31000 ft | 499 kts | 91° |
| 2026-05-04 01:56 | -54.96447 | 88.03762 | 31000 ft | 499 kts | 91° |
| 2026-05-04 01:56 | -54.96580 | 88.15832 | 31000 ft | 499 kts | 91° |
| 2026-05-04 01:57 | -54.96712 | 88.27906 | 30999 ft | 499 kts | 91° |
| 2026-05-04 01:57 | -54.96747 | 88.39895 | 31000 ft | 499 kts | 90° |
| 2026-05-04 01:58 | -54.96734 | 88.51963 | 31000 ft | 499 kts | 90° |
| 2026-05-04 01:58 | -54.96709 | 88.64021 | 31000 ft | 499 kts | 90° |
| 2026-05-04 01:59 | -54.96672 | 88.76102 | 31000 ft | 499 kts | 89° |
| 2026-05-04 01:59 | -54.96625 | 88.88081 | 31000 ft | 499 kts | 90° |
| 2026-05-04 02:00 | -54.96691 | 89.00149 | 31000 ft | 499 kts | 90° |
| 2026-05-04 02:00 | -54.96718 | 89.12226 | 31000 ft | 499 kts | 90° |
| 2026-05-04 02:01 | -54.96696 | 89.24295 | 31000 ft | 499 kts | 90° |
| 2026-05-04 02:01 | -54.96650 | 89.36385 | 31000 ft | 499 kts | 89° |
| 2026-05-04 02:02 | -54.96588 | 89.48370 | 31000 ft | 499 kts | 89° |
| 2026-05-04 02:02 | -54.96512 | 89.60429 | 31000 ft | 499 kts | 89° |
| 2026-05-04 02:03 | -54.96424 | 89.72506 | 31000 ft | 499 kts | 89° |
| 2026-05-04 02:03 | -54.96324 | 89.84570 | 31000 ft | 499 kts | 89° |
| 2026-05-04 02:04 | -54.96212 | 89.96618 | 31000 ft | 499 kts | 89° |
| 2026-05-04 02:04 | -54.96089 | 90.08628 | 31000 ft | 499 kts | 89° |
| 2026-05-04 02:05 | -54.95953 | 90.20687 | 31000 ft | 499 kts | 89° |
| 2026-05-04 02:05 | -54.95805 | 90.32759 | 31000 ft | 499 kts | 89° |
| 2026-05-04 02:06 | -54.95645 | 90.44836 | 31000 ft | 499 kts | 89° |
| 2026-05-04 02:06 | -54.95474 | 90.56817 | 31000 ft | 499 kts | 88° |
| 2026-05-04 02:07 | -54.95290 | 90.68870 | 31000 ft | 499 kts | 88° |
| 2026-05-04 02:07 | -54.95095 | 90.80943 | 31000 ft | 499 kts | 88° |
| 2026-05-04 02:08 | -54.94887 | 90.93002 | 31000 ft | 499 kts | 88° |
| 2026-05-04 02:08 | -54.94669 | 91.04984 | 31000 ft | 499 kts | 88° |
| 2026-05-04 02:09 | -54.94438 | 91.17041 | 31000 ft | 499 kts | 88° |
| 2026-05-04 02:09 | -54.94195 | 91.29083 | 31000 ft | 499 kts | 88° |
| 2026-05-04 02:10 | -54.93939 | 91.41138 | 31000 ft | 499 kts | 88° |
| 2026-05-04 02:10 | -54.93672 | 91.53200 | 31000 ft | 499 kts | 88° |
| 2026-05-04 02:11 | -54.93393 | 91.65256 | 31000 ft | 499 kts | 88° |
| 2026-05-04 02:11 | -54.93104 | 91.77230 | 31000 ft | 499 kts | 88° |
| 2026-05-04 02:12 | -54.92801 | 91.89277 | 31000 ft | 499 kts | 87° |
| 2026-05-04 02:12 | -54.92487 | 92.01307 | 31000 ft | 499 kts | 87° |
| 2026-05-04 02:13 | -54.92160 | 92.13371 | 31000 ft | 499 kts | 87° |
| 2026-05-04 02:13 | -54.91821 | 92.25406 | 31000 ft | 499 kts | 87° |
| 2026-05-04 02:14 | -54.91473 | 92.37364 | 31000 ft | 499 kts | 87° |
| 2026-05-04 02:14 | -54.91111 | 92.49391 | 31000 ft | 499 kts | 87° |
| 2026-05-04 02:15 | -54.90737 | 92.61433 | 31000 ft | 499 kts | 87° |
| 2026-05-04 02:15 | -54.90417 | 92.71427 | 31000 ft | 499 kts | 86° |
| 2026-05-04 02:16 | -54.89956 | 92.85425 | 31000 ft | 499 kts | 86° |
| 2026-05-04 02:16 | -54.89546 | 92.97452 | 31000 ft | 499 kts | 86° |
| 2026-05-04 02:17 | -54.89124 | 93.09492 | 31000 ft | 499 kts | 86° |
| 2026-05-04 02:17 | -54.88764 | 93.19488 | 31000 ft | 499 kts | 86° |
| 2026-05-04 02:18 | -54.88322 | 93.31493 | 30999 ft | 499 kts | 86° |
| 2026-05-04 02:18 | -54.87866 | 93.43524 | 31000 ft | 499 kts | 86° |
| 2026-05-04 02:19 | -54.87402 | 93.55460 | 31000 ft | 499 kts | 86° |
| 2026-05-04 02:19 | -54.86923 | 93.67476 | 30999 ft | 499 kts | 86° |
| 2026-05-04 02:20 | -54.86434 | 93.79451 | 31000 ft | 499 kts | 86° |
| 2026-05-04 02:20 | -54.85930 | 93.91498 | 31000 ft | 499 kts | 86° |
| 2026-05-04 02:21 | -54.85416 | 94.03476 | 30999 ft | 499 kts | 85° |
| 2026-05-04 02:21 | -54.84893 | 94.15425 | 31000 ft | 499 kts | 85° |
| 2026-05-04 02:22 | -54.84355 | 94.27423 | 31000 ft | 499 kts | 85° |
| 2026-05-04 02:22 | -54.83805 | 94.39411 | 31000 ft | 499 kts | 85° |
| 2026-05-04 02:23 | -54.83243 | 94.51408 | 31000 ft | 499 kts | 85° |
| 2026-05-04 02:23 | -54.82670 | 94.63402 | 31000 ft | 499 kts | 85° |
| 2026-05-04 02:24 | -54.82089 | 94.75298 | 31000 ft | 499 kts | 85° |
| 2026-05-04 02:24 | -54.81492 | 94.87269 | 31000 ft | 499 kts | 85° |
| 2026-05-04 02:25 | -54.80883 | 94.99257 | 31000 ft | 499 kts | 85° |
| 2026-05-04 02:25 | -54.80262 | 95.11231 | 31000 ft | 499 kts | 85° |
| 2026-05-04 02:26 | -54.79631 | 95.23188 | 30999 ft | 499 kts | 84° |
| 2026-05-04 02:26 | -54.78991 | 95.35080 | 31000 ft | 499 kts | 84° |
| 2026-05-04 02:27 | -54.78334 | 95.47064 | 31000 ft | 499 kts | 84° |
| 2026-05-04 02:27 | -54.77669 | 95.58980 | 31000 ft | 499 kts | 84° |
| 2026-05-04 02:28 | -54.76988 | 95.70957 | 31000 ft | 499 kts | 84° |
| 2026-05-04 02:28 | -54.76297 | 95.82921 | 31000 ft | 499 kts | 84° |
| 2026-05-04 02:29 | -54.75600 | 95.94761 | 31000 ft | 499 kts | 84° |
| 2026-05-04 02:29 | -54.74889 | 96.06661 | 31000 ft | 499 kts | 84° |
| 2026-05-04 02:30 | -54.74158 | 96.18675 | 31000 ft | 499 kts | 84° |
| 2026-05-04 02:30 | -54.73425 | 96.30530 | 31000 ft | 499 kts | 84° |
| 2026-05-04 02:31 | -54.72676 | 96.42450 | 31000 ft | 499 kts | 84° |
| 2026-05-04 02:31 | -54.71915 | 96.54381 | 31000 ft | 499 kts | 83° |
| 2026-05-04 02:32 | -54.71142 | 96.66303 | 31000 ft | 499 kts | 83° |
| 2026-05-04 02:32 | -54.70357 | 96.78228 | 31000 ft | 499 kts | 83° |
| 2026-05-04 02:33 | -54.69566 | 96.90066 | 31000 ft | 499 kts | 83° |
| 2026-05-04 02:33 | -54.68758 | 97.01974 | 31000 ft | 499 kts | 83° |
| 2026-05-04 02:34 | -54.67940 | 97.13862 | 31000 ft | 499 kts | 83° |
| 2026-05-04 02:34 | -54.67121 | 97.25775 | 30999 ft | 499 kts | 84° |
| 2026-05-04 02:35 | -54.66339 | 97.37682 | 31000 ft | 499 kts | 83° |
| 2026-05-04 02:35 | -54.65467 | 97.49475 | 31000 ft | 499 kts | 83° |
| 2026-05-04 02:36 | -54.64575 | 97.61356 | 31000 ft | 499 kts | 82° |
| 2026-05-04 02:36 | -54.63681 | 97.73235 | 31000 ft | 499 kts | 83° |
| 2026-05-04 02:37 | -54.62831 | 97.85119 | 31000 ft | 499 kts | 83° |
| 2026-05-04 02:37 | -54.62076 | 97.96921 | 31000 ft | 499 kts | 83° |
| 2026-05-04 02:38 | -54.61284 | 98.08828 | 31000 ft | 499 kts | 83° |
| 2026-05-04 02:38 | -54.60473 | 98.20699 | 31000 ft | 499 kts | 83° |
| 2026-05-04 02:39 | -54.59643 | 98.32583 | 31000 ft | 499 kts | 83° |
| 2026-05-04 02:39 | -54.58857 | 98.44462 | 31000 ft | 499 kts | 84° |
| 2026-05-04 02:40 | -54.58132 | 98.56269 | 31000 ft | 499 kts | 83° |
| 2026-05-04 02:40 | -54.57339 | 98.68148 | 31000 ft | 499 kts | 83° |
| 2026-05-04 02:41 | -54.56513 | 98.80024 | 31000 ft | 499 kts | 83° |
| 2026-05-04 02:41 | -54.55670 | 98.91881 | 31000 ft | 499 kts | 83° |
| 2026-05-04 02:42 | -54.54813 | 99.03731 | 31000 ft | 499 kts | 83° |
| 2026-05-04 02:42 | -54.53949 | 99.15503 | 31000 ft | 499 kts | 83° |
| 2026-05-04 02:43 | -54.53067 | 99.27369 | 31000 ft | 499 kts | 83° |
| 2026-05-04 02:43 | -54.52175 | 99.39197 | 31000 ft | 499 kts | 82° |
| 2026-05-04 02:44 | -54.51270 | 99.51033 | 31000 ft | 499 kts | 82° |
| 2026-05-04 02:44 | -54.50359 | 99.62798 | 31000 ft | 499 kts | 82° |
| 2026-05-04 02:45 | -54.49433 | 99.74604 | 31000 ft | 499 kts | 82° |
| 2026-05-04 02:45 | -54.48493 | 99.86440 | 31000 ft | 499 kts | 82° |
| 2026-05-04 02:46 | -54.47542 | 99.98264 | 31000 ft | 499 kts | 82° |
| 2026-05-04 02:46 | -54.46580 | 100.10064 | 31000 ft | 499 kts | 82° |
| 2026-05-04 02:47 | -54.45614 | 100.21784 | 31000 ft | 499 kts | 82° |
| 2026-05-04 02:47 | -54.44628 | 100.33593 | 31000 ft | 499 kts | 82° |
| 2026-05-04 02:48 | -54.43633 | 100.45360 | 31000 ft | 499 kts | 82° |
| 2026-05-04 02:48 | -54.42624 | 100.57157 | 31000 ft | 499 kts | 82° |
| 2026-05-04 02:49 | -54.41611 | 100.68864 | 31000 ft | 499 kts | 81° |
| 2026-05-04 02:49 | -54.40580 | 100.80642 | 31000 ft | 499 kts | 81° |
| 2026-05-04 02:50 | -54.39537 | 100.92423 | 31000 ft | 499 kts | 81° |
| 2026-05-04 02:50 | -54.38484 | 101.04176 | 31000 ft | 499 kts | 81° |
| 2026-05-04 02:51 | -54.37426 | 101.15854 | 31000 ft | 499 kts | 81° |
| 2026-05-04 02:51 | -54.36350 | 101.27606 | 31000 ft | 499 kts | 81° |
| 2026-05-04 02:52 | -54.35263 | 101.39340 | 31000 ft | 499 kts | 81° |
| 2026-05-04 02:52 | -54.34162 | 101.51098 | 31000 ft | 499 kts | 81° |
| 2026-05-04 02:53 | -54.33060 | 101.62734 | 31000 ft | 499 kts | 81° |
| 2026-05-04 02:53 | -54.31938 | 101.74463 | 31000 ft | 499 kts | 81° |
| 2026-05-04 02:54 | -54.30803 | 101.86197 | 31000 ft | 499 kts | 81° |
| 2026-05-04 02:54 | -54.29658 | 101.97913 | 30999 ft | 499 kts | 80° |
| 2026-05-04 02:55 | -54.27928 | 102.15388 | 31000 ft | 499 kts | 80° |
| 2026-05-04 02:56 | -54.26756 | 102.27074 | 31000 ft | 499 kts | 80° |
| 2026-05-04 02:56 | -54.25572 | 102.38763 | 31000 ft | 499 kts | 80° |
| 2026-05-04 02:57 | -54.24378 | 102.50430 | 31000 ft | 499 kts | 80° |
| 2026-05-04 02:57 | -54.23177 | 102.62056 | 31000 ft | 499 kts | 80° |
| 2026-05-04 02:58 | -54.21958 | 102.73730 | 31000 ft | 499 kts | 80° |
| 2026-05-04 02:58 | -54.20731 | 102.85377 | 31000 ft | 499 kts | 79° |
| 2026-05-04 02:59 | -54.19489 | 102.97041 | 31000 ft | 499 kts | 79° |
| 2026-05-04 02:59 | -54.18246 | 103.08612 | 31000 ft | 499 kts | 79° |
| 2026-05-04 03:00 | -54.16983 | 103.20257 | 31000 ft | 499 kts | 79° |
| 2026-05-04 03:00 | -54.15710 | 103.31881 | 31000 ft | 499 kts | 79° |
| 2026-05-04 03:01 | -54.14424 | 103.43514 | 31000 ft | 499 kts | 79° |
| 2026-05-04 03:01 | -54.13127 | 103.55137 | 31000 ft | 499 kts | 79° |
| 2026-05-04 03:02 | -54.11829 | 103.66672 | 31000 ft | 499 kts | 79° |
| 2026-05-04 03:02 | -54.10511 | 103.78273 | 30999 ft | 499 kts | 79° |
| 2026-05-04 03:03 | -54.09201 | 103.89888 | 31000 ft | 499 kts | 79° |
| 2026-05-04 03:03 | -54.07909 | 104.01493 | 31000 ft | 499 kts | 79° |
| 2026-05-04 03:04 | -54.06541 | 104.12991 | 31000 ft | 499 kts | 78° |
| 2026-05-04 03:04 | -54.05153 | 104.24563 | 31000 ft | 499 kts | 78° |
| 2026-05-04 03:05 | -54.03766 | 104.36119 | 31000 ft | 499 kts | 78° |
| 2026-05-04 03:05 | -54.02468 | 104.47713 | 31000 ft | 499 kts | 80° |
| 2026-05-04 03:06 | -54.01385 | 104.59274 | 31000 ft | 499 kts | 81° |
| 2026-05-04 03:06 | -54.00270 | 104.70907 | 31000 ft | 499 kts | 81° |
| 2026-05-04 03:07 | -53.99115 | 104.82542 | 31000 ft | 499 kts | 80° |
| 2026-05-04 03:07 | -53.97939 | 104.94161 | 31000 ft | 499 kts | 80° |
| 2026-05-04 03:08 | -53.96827 | 105.05676 | 30999 ft | 499 kts | 81° |
| 2026-05-04 03:08 | -53.95737 | 105.17338 | 31000 ft | 499 kts | 81° |
| 2026-05-04 03:09 | -53.94593 | 105.28940 | 31000 ft | 499 kts | 80° |
| 2026-05-04 03:09 | -53.93418 | 105.40543 | 31000 ft | 499 kts | 80° |
| 2026-05-04 03:10 | -53.92225 | 105.52151 | 31000 ft | 499 kts | 80° |
| 2026-05-04 03:10 | -53.91030 | 105.63644 | 31000 ft | 499 kts | 80° |
| 2026-05-04 03:11 | -53.89812 | 105.75237 | 31000 ft | 499 kts | 80° |
| 2026-05-04 03:11 | -53.88591 | 105.86746 | 31000 ft | 499 kts | 79° |
| 2026-05-04 03:12 | -53.87344 | 105.98383 | 31000 ft | 499 kts | 79° |
| 2026-05-04 03:12 | -53.86104 | 106.09847 | 31000 ft | 499 kts | 79° |
| 2026-05-04 03:13 | -53.84841 | 106.21422 | 31000 ft | 499 kts | 79° |
| 2026-05-04 03:13 | -53.83571 | 106.32944 | 31000 ft | 499 kts | 79° |
| 2026-05-04 03:14 | -53.82293 | 106.44428 | 31000 ft | 499 kts | 79° |
| 2026-05-04 03:14 | -53.80998 | 106.55963 | 31000 ft | 499 kts | 79° |
| 2026-05-04 03:15 | -53.79695 | 106.67468 | 31000 ft | 499 kts | 79° |
| 2026-05-04 03:15 | -53.78379 | 106.78976 | 31000 ft | 499 kts | 79° |
| 2026-05-04 03:16 | -53.77058 | 106.90434 | 31000 ft | 499 kts | 79° |
| 2026-05-04 03:16 | -53.75719 | 107.01935 | 31000 ft | 499 kts | 79° |
| 2026-05-04 03:17 | -53.74370 | 107.13426 | 31000 ft | 499 kts | 78° |
| 2026-05-04 03:17 | -53.73010 | 107.24911 | 31000 ft | 499 kts | 78° |
| 2026-05-04 03:18 | -53.71648 | 107.36312 | 31000 ft | 499 kts | 78° |
| 2026-05-04 03:18 | -53.70265 | 107.47792 | 30999 ft | 499 kts | 78° |
| 2026-05-04 03:19 | -53.68872 | 107.59251 | 31000 ft | 499 kts | 78° |
| 2026-05-04 03:19 | -53.67467 | 107.70720 | 31000 ft | 499 kts | 78° |
| 2026-05-04 03:20 | -53.66052 | 107.82163 | 31000 ft | 499 kts | 78° |
| 2026-05-04 03:20 | -53.64636 | 107.93530 | 31000 ft | 499 kts | 78° |
| 2026-05-04 03:21 | -53.63198 | 108.04969 | 31000 ft | 499 kts | 78° |
| 2026-05-04 03:21 | -53.61749 | 108.16401 | 31000 ft | 499 kts | 78° |
| 2026-05-04 03:22 | -53.60291 | 108.27815 | 31000 ft | 499 kts | 78° |
| 2026-05-04 03:22 | -53.58832 | 108.39148 | 31000 ft | 499 kts | 78° |
| 2026-05-04 03:23 | -53.57352 | 108.50543 | 31000 ft | 499 kts | 77° |
| 2026-05-04 03:23 | -53.55860 | 108.61948 | 31000 ft | 499 kts | 77° |
| 2026-05-04 03:24 | -53.54357 | 108.73342 | 31000 ft | 499 kts | 77° |
| 2026-05-04 03:24 | -53.52844 | 108.84722 | 31000 ft | 499 kts | 77° |
| 2026-05-04 03:25 | -53.51333 | 108.96000 | 31000 ft | 499 kts | 77° |
| 2026-05-04 03:25 | -53.49798 | 109.07366 | 30999 ft | 499 kts | 77° |
| 2026-05-04 03:26 | -53.48251 | 109.18733 | 31000 ft | 499 kts | 77° |
| 2026-05-04 03:26 | -53.46696 | 109.30078 | 31000 ft | 499 kts | 77° |
| 2026-05-04 03:27 | -53.45142 | 109.41325 | 31000 ft | 499 kts | 77° |
| 2026-05-04 03:27 | -53.43564 | 109.52656 | 31000 ft | 499 kts | 77° |
| 2026-05-04 03:28 | -53.41976 | 109.63979 | 31000 ft | 499 kts | 77° |
| 2026-05-04 03:28 | -53.40386 | 109.75232 | 31000 ft | 499 kts | 76° |
| 2026-05-04 03:29 | -53.38778 | 109.86523 | 31000 ft | 499 kts | 76° |
| 2026-05-04 03:29 | -53.37156 | 109.97833 | 31000 ft | 499 kts | 76° |
| 2026-05-04 03:30 | -53.35526 | 110.09120 | 31000 ft | 499 kts | 76° |
| 2026-05-04 03:30 | -53.33886 | 110.20389 | 31000 ft | 499 kts | 76° |
| 2026-05-04 03:31 | -53.32245 | 110.31589 | 31000 ft | 499 kts | 76° |
| 2026-05-04 03:31 | -53.30582 | 110.42853 | 31000 ft | 499 kts | 76° |
| 2026-05-04 03:32 | -53.28908 | 110.54109 | 31000 ft | 499 kts | 76° |
| 2026-05-04 03:32 | -53.27226 | 110.65347 | 31000 ft | 499 kts | 76° |
| 2026-05-04 03:33 | -53.25531 | 110.76585 | 31000 ft | 499 kts | 76° |
| 2026-05-04 03:33 | -53.23838 | 110.87738 | 31000 ft | 499 kts | 76° |
| 2026-05-04 03:34 | -53.22125 | 110.98943 | 31000 ft | 499 kts | 76° |
| 2026-05-04 03:34 | -53.20397 | 111.10164 | 31000 ft | 499 kts | 75° |
| 2026-05-04 03:35 | -53.18673 | 111.21287 | 31000 ft | 499 kts | 75° |
| 2026-05-04 03:35 | -53.16929 | 111.32465 | 31000 ft | 499 kts | 75° |
| 2026-05-04 03:36 | -53.15226 | 111.43679 | 30999 ft | 499 kts | 76° |
| 2026-05-04 03:36 | -53.13458 | 111.54857 | 31000 ft | 499 kts | 75° |
| 2026-05-04 03:37 | -53.11667 | 111.65932 | 31000 ft | 499 kts | 75° |
| 2026-05-04 03:37 | -53.09860 | 111.77076 | 31000 ft | 499 kts | 75° |
| 2026-05-04 03:38 | -53.08064 | 111.88218 | 31000 ft | 499 kts | 76° |
| 2026-05-04 03:38 | -53.06554 | 111.99486 | 31000 ft | 499 kts | 78° |
| 2026-05-04 03:39 | -53.05196 | 112.10709 | 31000 ft | 499 kts | 78° |
| 2026-05-04 03:39 | -53.03772 | 112.21990 | 31000 ft | 499 kts | 78° |
| 2026-05-04 03:40 | -53.02310 | 112.33260 | 31000 ft | 499 kts | 78° |
| 2026-05-04 03:40 | -53.00834 | 112.44519 | 30999 ft | 499 kts | 78° |
| 2026-05-04 03:41 | -52.99458 | 112.55792 | 31000 ft | 499 kts | 78° |
| 2026-05-04 03:41 | -52.98045 | 112.66992 | 31000 ft | 499 kts | 78° |
| 2026-05-04 03:42 | -52.96583 | 112.78241 | 31000 ft | 499 kts | 78° |
| 2026-05-04 03:42 | -52.95102 | 112.89455 | 31000 ft | 499 kts | 77° |
| 2026-05-04 03:43 | -52.93601 | 113.00713 | 31000 ft | 499 kts | 77° |
| 2026-05-04 03:43 | -52.92093 | 113.11920 | 31000 ft | 499 kts | 77° |
| 2026-05-04 03:44 | -52.90582 | 113.23069 | 31000 ft | 499 kts | 77° |
| 2026-05-04 03:44 | -52.89051 | 113.34272 | 31000 ft | 499 kts | 77° |
| 2026-05-04 03:45 | -52.87510 | 113.45471 | 31000 ft | 499 kts | 77° |
| 2026-05-04 03:45 | -52.85959 | 113.56653 | 31000 ft | 499 kts | 77° |
| 2026-05-04 03:46 | -52.84405 | 113.67767 | 31000 ft | 499 kts | 77° |
| 2026-05-04 03:46 | -52.82834 | 113.78927 | 31000 ft | 499 kts | 77° |
| 2026-05-04 03:47 | -52.81249 | 113.90104 | 31000 ft | 499 kts | 77° |
| 2026-05-04 03:47 | -52.79657 | 114.01249 | 31000 ft | 499 kts | 77° |
| 2026-05-04 03:48 | -52.78062 | 114.12331 | 31000 ft | 499 kts | 76° |
| 2026-05-04 03:48 | -52.76448 | 114.23468 | 31000 ft | 499 kts | 76° |
| 2026-05-04 03:49 | -52.74822 | 114.34609 | 31000 ft | 499 kts | 76° |
| 2026-05-04 03:49 | -52.73187 | 114.45729 | 31000 ft | 499 kts | 76° |
| 2026-05-04 03:50 | -52.71552 | 114.56768 | 31000 ft | 499 kts | 76° |
| 2026-05-04 03:50 | -52.69897 | 114.67868 | 31000 ft | 499 kts | 76° |
| 2026-05-04 03:51 | -52.68230 | 114.78966 | 31000 ft | 499 kts | 76° |
| 2026-05-04 03:51 | -52.66553 | 114.90056 | 31000 ft | 499 kts | 76° |
| 2026-05-04 03:52 | -52.64867 | 115.01127 | 31000 ft | 499 kts | 76° |
| 2026-05-04 03:52 | -52.63180 | 115.12137 | 31000 ft | 499 kts | 76° |
| 2026-05-04 03:53 | -52.61470 | 115.23209 | 31000 ft | 499 kts | 76° |
| 2026-05-04 03:53 | -52.59755 | 115.34249 | 31000 ft | 499 kts | 76° |
| 2026-05-04 03:54 | -52.58026 | 115.45300 | 31000 ft | 499 kts | 75° |
| 2026-05-04 03:54 | -52.56297 | 115.56276 | 30999 ft | 499 kts | 75° |
| 2026-05-04 03:55 | -52.54549 | 115.67299 | 31000 ft | 499 kts | 75° |
| 2026-05-04 03:55 | -52.52792 | 115.78307 | 31000 ft | 499 kts | 75° |
| 2026-05-04 03:56 | -52.51019 | 115.89336 | 31000 ft | 499 kts | 75° |
| 2026-05-04 03:56 | -52.49241 | 116.00330 | 31000 ft | 499 kts | 75° |
| 2026-05-04 03:57 | -52.47463 | 116.11253 | 31000 ft | 499 kts | 75° |
| 2026-05-04 03:57 | -52.45663 | 116.22242 | 31000 ft | 499 kts | 75° |
| 2026-05-04 03:58 | -52.42967 | 116.38564 | 31000 ft | 499 kts | 75° |
| 2026-05-04 03:58 | -52.41130 | 116.49594 | 31000 ft | 499 kts | 75° |
| 2026-05-04 03:59 | -52.39295 | 116.60545 | 31000 ft | 499 kts | 75° |
| 2026-05-04 03:59 | -52.37451 | 116.71481 | 31000 ft | 499 kts | 75° |
| 2026-05-04 04:00 | -52.35595 | 116.82419 | 31000 ft | 499 kts | 74° |
| 2026-05-04 04:00 | -52.33740 | 116.93281 | 31000 ft | 499 kts | 74° |
| 2026-05-04 04:01 | -52.31866 | 117.04192 | 31000 ft | 499 kts | 74° |
| 2026-05-04 04:01 | -52.29981 | 117.15093 | 31000 ft | 499 kts | 74° |
| 2026-05-04 04:02 | -52.28086 | 117.25990 | 31000 ft | 499 kts | 74° |
| 2026-05-04 04:02 | -52.26178 | 117.36892 | 31000 ft | 499 kts | 74° |
| 2026-05-04 04:03 | -52.24276 | 117.47692 | 31000 ft | 499 kts | 74° |
| 2026-05-04 04:03 | -52.22352 | 117.58554 | 31000 ft | 499 kts | 74° |
| 2026-05-04 04:04 | -52.20414 | 117.69425 | 31000 ft | 499 kts | 73° |
| 2026-05-04 04:04 | -52.18471 | 117.80261 | 31000 ft | 499 kts | 73° |
| 2026-05-04 04:05 | -52.16527 | 117.91040 | 31000 ft | 499 kts | 73° |
| 2026-05-04 04:05 | -52.14566 | 118.01849 | 31000 ft | 499 kts | 73° |
| 2026-05-04 04:06 | -52.12586 | 118.12694 | 31000 ft | 499 kts | 73° |
| 2026-05-04 04:06 | -52.10601 | 118.23508 | 31000 ft | 499 kts | 73° |
| 2026-05-04 04:07 | -52.08607 | 118.34307 | 31000 ft | 499 kts | 73° |
| 2026-05-04 04:07 | -52.06614 | 118.45034 | 31000 ft | 499 kts | 73° |
| 2026-05-04 04:08 | -52.04600 | 118.55813 | 31000 ft | 499 kts | 73° |
| 2026-05-04 04:08 | -52.02573 | 118.66600 | 31000 ft | 499 kts | 73° |
| 2026-05-04 04:09 | -52.00538 | 118.77367 | 31000 ft | 499 kts | 73° |
| 2026-05-04 04:09 | -51.98494 | 118.88125 | 31000 ft | 499 kts | 73° |
| 2026-05-04 04:10 | -51.96453 | 118.98801 | 31000 ft | 499 kts | 72° |
| 2026-05-04 04:10 | -51.94394 | 119.09510 | 31000 ft | 499 kts | 72° |
| 2026-05-04 04:11 | -51.92320 | 119.20240 | 31000 ft | 499 kts | 72° |
| 2026-05-04 04:11 | -51.90236 | 119.30961 | 31000 ft | 499 kts | 72° |
| 2026-05-04 04:12 | -51.88154 | 119.41608 | 31000 ft | 499 kts | 72° |
| 2026-05-04 04:12 | -51.86054 | 119.52293 | 31000 ft | 499 kts | 72° |
| 2026-05-04 04:13 | -51.83940 | 119.62990 | 31000 ft | 499 kts | 72° |
| 2026-05-04 04:13 | -51.81820 | 119.73655 | 31000 ft | 499 kts | 72° |
| 2026-05-04 04:14 | -51.79687 | 119.84325 | 31000 ft | 499 kts | 72° |
| 2026-05-04 04:14 | -51.77560 | 119.94915 | 31000 ft | 499 kts | 72° |
| 2026-05-04 04:15 | -51.75411 | 120.05553 | 31000 ft | 499 kts | 72° |
| 2026-05-04 04:15 | -51.73248 | 120.16199 | 31000 ft | 499 kts | 72° |
| 2026-05-04 04:16 | -51.71081 | 120.26813 | 31000 ft | 499 kts | 72° |
| 2026-05-04 04:16 | -51.68915 | 120.37365 | 31000 ft | 499 kts | 71° |
| 2026-05-04 04:17 | -51.66780 | 120.47990 | 31000 ft | 499 kts | 72° |
| 2026-05-04 04:17 | -51.64579 | 120.58582 | 31000 ft | 499 kts | 71° |
| 2026-05-04 04:18 | -51.62347 | 120.69162 | 31000 ft | 499 kts | 71° |
| 2026-05-04 04:18 | -51.60112 | 120.79728 | 31000 ft | 499 kts | 71° |
| 2026-05-04 04:19 | -51.57893 | 120.90217 | 31000 ft | 499 kts | 71° |
| 2026-05-04 04:19 | -51.55637 | 121.00751 | 31000 ft | 499 kts | 71° |
| 2026-05-04 04:20 | -51.53360 | 121.11271 | 31000 ft | 499 kts | 71° |
| 2026-05-04 04:20 | -51.51067 | 121.21796 | 31000 ft | 499 kts | 71° |
| 2026-05-04 04:21 | -51.48766 | 121.32296 | 31000 ft | 499 kts | 70° |
| 2026-05-04 04:21 | -51.46463 | 121.42794 | 30999 ft | 499 kts | 71° |
| 2026-05-04 04:22 | -51.44262 | 121.53257 | 31000 ft | 499 kts | 71° |
| 2026-05-04 04:22 | -51.42002 | 121.63770 | 31000 ft | 499 kts | 71° |
| 2026-05-04 04:23 | -51.39711 | 121.74247 | 31000 ft | 499 kts | 70° |
| 2026-05-04 04:23 | -51.37416 | 121.84645 | 31000 ft | 499 kts | 70° |
| 2026-05-04 04:24 | -51.35094 | 121.95100 | 31000 ft | 499 kts | 70° |
| 2026-05-04 04:24 | -51.32756 | 122.05567 | 31000 ft | 499 kts | 70° |
| 2026-05-04 04:25 | -51.30413 | 122.16007 | 31000 ft | 499 kts | 70° |
| 2026-05-04 04:25 | -51.28064 | 122.26416 | 31000 ft | 499 kts | 70° |
| 2026-05-04 04:26 | -51.25720 | 122.36754 | 31000 ft | 499 kts | 70° |
| 2026-05-04 04:26 | -51.23347 | 122.47172 | 31000 ft | 499 kts | 70° |
| 2026-05-04 04:27 | -51.20965 | 122.57575 | 31000 ft | 499 kts | 70° |
| 2026-05-04 04:27 | -51.18583 | 122.67925 | 31000 ft | 499 kts | 70° |
| 2026-05-04 04:28 | -51.16197 | 122.78246 | 31000 ft | 499 kts | 70° |
| 2026-05-04 04:28 | -51.13789 | 122.88611 | 31000 ft | 499 kts | 70° |
| 2026-05-04 04:29 | -51.11370 | 122.98972 | 31000 ft | 499 kts | 69° |
| 2026-05-04 04:29 | -51.08945 | 123.09309 | 31000 ft | 499 kts | 69° |
| 2026-05-04 04:30 | -51.06527 | 123.19567 | 31000 ft | 499 kts | 69° |
| 2026-05-04 04:30 | -51.04083 | 123.29884 | 31000 ft | 499 kts | 69° |
| 2026-05-04 04:31 | -51.01632 | 123.40183 | 31000 ft | 499 kts | 69° |
| 2026-05-04 04:31 | -50.99169 | 123.50485 | 31000 ft | 499 kts | 69° |
| 2026-05-04 04:32 | -50.96697 | 123.60776 | 31000 ft | 499 kts | 69° |
| 2026-05-04 04:32 | -50.94233 | 123.70983 | 31000 ft | 499 kts | 69° |
| 2026-05-04 04:33 | -50.91747 | 123.81236 | 31000 ft | 499 kts | 69° |
| 2026-05-04 04:33 | -50.89247 | 123.91494 | 31000 ft | 499 kts | 69° |
| 2026-05-04 04:34 | -50.86739 | 124.01740 | 31000 ft | 499 kts | 69° |
| 2026-05-04 04:34 | -50.84240 | 124.11903 | 31000 ft | 499 kts | 69° |
| 2026-05-04 04:35 | -50.81719 | 124.22110 | 31000 ft | 499 kts | 69° |
| 2026-05-04 04:35 | -50.79183 | 124.32325 | 31000 ft | 499 kts | 68° |
| 2026-05-04 04:36 | -50.76641 | 124.42520 | 31000 ft | 499 kts | 68° |
| 2026-05-04 04:36 | -50.74091 | 124.52702 | 31000 ft | 499 kts | 68° |
| 2026-05-04 04:37 | -50.68979 | 124.72974 | 31000 ft | 499 kts | 68° |
| 2026-05-04 04:38 | -50.66401 | 124.83126 | 31000 ft | 499 kts | 68° |
| 2026-05-04 04:38 | -50.63814 | 124.93271 | 31000 ft | 499 kts | 68° |
| 2026-05-04 04:39 | -50.61219 | 125.03399 | 31000 ft | 499 kts | 68° |
| 2026-05-04 04:39 | -50.58629 | 125.13463 | 31000 ft | 499 kts | 68° |
| 2026-05-04 04:40 | -50.56017 | 125.23568 | 31000 ft | 499 kts | 68° |
| 2026-05-04 04:40 | -50.53395 | 125.33667 | 31000 ft | 499 kts | 68° |
| 2026-05-04 04:41 | -50.50765 | 125.43752 | 31000 ft | 499 kts | 68° |
| 2026-05-04 04:41 | -50.48144 | 125.53755 | 31000 ft | 499 kts | 68° |
| 2026-05-04 04:42 | -50.45495 | 125.63824 | 31000 ft | 499 kts | 68° |
| 2026-05-04 04:42 | -50.42838 | 125.73879 | 31000 ft | 499 kts | 67° |
| 2026-05-04 04:43 | -50.40176 | 125.83908 | 31000 ft | 499 kts | 67° |
| 2026-05-04 04:43 | -50.37502 | 125.93937 | 31000 ft | 499 kts | 67° |
| 2026-05-04 04:44 | -50.34835 | 126.03898 | 31000 ft | 499 kts | 67° |
| 2026-05-04 04:44 | -50.32144 | 126.13906 | 31000 ft | 499 kts | 67° |
| 2026-05-04 04:45 | -50.29901 | 126.22214 | 31000 ft | 499 kts | 67° |
| 2026-05-04 04:47 | -50.19947 | 126.58735 | 31000 ft | 499 kts | 67° |
| 2026-05-04 04:47 | -50.17673 | 126.66997 | 31000 ft | 499 kts | 66° |
| 2026-05-04 04:48 | -50.14483 | 126.78538 | 31000 ft | 499 kts | 66° |
| 2026-05-04 04:49 | -50.08048 | 127.01652 | 31000 ft | 499 kts | 66° |
| 2026-05-04 04:49 | -50.05273 | 127.11551 | 31000 ft | 499 kts | 66° |
| 2026-05-04 04:50 | -50.02490 | 127.21435 | 31000 ft | 499 kts | 66° |
| 2026-05-04 04:50 | -49.99699 | 127.31308 | 31000 ft | 499 kts | 66° |
| 2026-05-04 04:51 | -49.96449 | 127.42753 | 31000 ft | 499 kts | 66° |
| 2026-05-04 04:51 | -49.94113 | 127.50945 | 31000 ft | 499 kts | 66° |
| 2026-05-04 04:52 | -49.91298 | 127.60776 | 31000 ft | 499 kts | 66° |
| 2026-05-04 04:52 | -49.88472 | 127.70610 | 31000 ft | 499 kts | 66° |
| 2026-05-04 04:53 | -49.85656 | 127.80367 | 31000 ft | 499 kts | 66° |
| 2026-05-04 04:53 | -49.82817 | 127.90164 | 31000 ft | 499 kts | 66° |
| 2026-05-04 04:54 | -49.79967 | 127.99961 | 31000 ft | 499 kts | 65° |
| 2026-05-04 04:54 | -49.77112 | 128.09731 | 31000 ft | 499 kts | 65° |
| 2026-05-04 04:55 | -49.74245 | 128.19505 | 31000 ft | 499 kts | 65° |
| 2026-05-04 04:55 | -49.71389 | 128.29205 | 31000 ft | 499 kts | 65° |
| 2026-05-04 04:56 | -49.68506 | 128.38953 | 31000 ft | 499 kts | 65° |
| 2026-05-04 04:56 | -49.65616 | 128.48689 | 31000 ft | 499 kts | 65° |
| 2026-05-04 04:57 | -49.62722 | 128.58399 | 31000 ft | 499 kts | 65° |
| 2026-05-04 04:57 | -49.59836 | 128.68042 | 31000 ft | 499 kts | 65° |
| 2026-05-04 04:58 | -49.56917 | 128.77758 | 30999 ft | 499 kts | 65° |
| 2026-05-04 04:58 | -49.53997 | 128.87436 | 31000 ft | 499 kts | 65° |
| 2026-05-04 04:59 | -49.51062 | 128.97131 | 31000 ft | 499 kts | 65° |
| 2026-05-04 04:59 | -49.48128 | 129.06781 | 31000 ft | 499 kts | 65° |
| 2026-05-04 05:00 | -49.45237 | 129.16399 | 30998 ft | 499 kts | 65° |
| 2026-05-04 05:01 | -49.40799 | 129.30865 | 31000 ft | 499 kts | 64° |
| 2026-05-04 05:01 | -49.37816 | 129.40472 | 31000 ft | 499 kts | 64° |
| 2026-05-04 05:02 | -49.34830 | 129.50077 | 31000 ft | 499 kts | 64° |
| 2026-05-04 05:02 | -49.31899 | 129.59651 | 31000 ft | 499 kts | 66° |
| 2026-05-04 05:03 | -49.29108 | 129.69374 | 31000 ft | 499 kts | 66° |
| 2026-05-04 05:04 | -49.23474 | 129.88791 | 31000 ft | 499 kts | 66° |
| 2026-05-04 05:04 | -49.20654 | 129.98391 | 31000 ft | 499 kts | 66° |
| 2026-05-04 05:06 | -49.09415 | 130.37072 | 31000 ft | 499 kts | 66° |
| 2026-05-04 05:07 | -49.06564 | 130.46703 | 31000 ft | 499 kts | 65° |
| 2026-05-04 05:07 | -49.03696 | 130.56346 | 31000 ft | 499 kts | 65° |
| 2026-05-04 05:09 | -48.90722 | 130.99485 | 31000 ft | 499 kts | 65° |
| 2026-05-04 05:10 | -48.87810 | 131.09065 | 31000 ft | 499 kts | 65° |
| 2026-05-04 05:10 | -48.84914 | 131.18556 | 31000 ft | 499 kts | 65° |
| 2026-05-04 05:11 | -48.81990 | 131.28100 | 31000 ft | 499 kts | 65° |
| 2026-05-04 05:11 | -48.79056 | 131.37639 | 31000 ft | 499 kts | 65° |
| 2026-05-04 05:12 | -48.76115 | 131.47165 | 31000 ft | 499 kts | 65° |
| 2026-05-04 05:12 | -48.73188 | 131.56611 | 31000 ft | 499 kts | 65° |
| 2026-05-04 05:13 | -48.70230 | 131.66119 | 31000 ft | 499 kts | 65° |
| 2026-05-04 05:13 | -48.67270 | 131.75600 | 31000 ft | 499 kts | 64° |
| 2026-05-04 05:14 | -48.64299 | 131.85076 | 31000 ft | 499 kts | 64° |
| 2026-05-04 05:14 | -48.61342 | 131.94474 | 31000 ft | 499 kts | 64° |
| 2026-05-04 05:15 | -48.58349 | 132.03949 | 31000 ft | 499 kts | 64° |
| 2026-05-04 05:15 | -48.55353 | 132.13399 | 31000 ft | 499 kts | 64° |
| 2026-05-04 05:16 | -48.52371 | 132.22771 | 31000 ft | 499 kts | 64° |
| 2026-05-04 05:16 | -48.49363 | 132.32189 | 31000 ft | 499 kts | 64° |
| 2026-05-04 05:17 | -48.46342 | 132.41612 | 31000 ft | 499 kts | 64° |
| 2026-05-04 05:17 | -48.43319 | 132.51006 | 31000 ft | 499 kts | 64° |
| 2026-05-04 05:18 | -48.40284 | 132.60401 | 31000 ft | 499 kts | 64° |
| 2026-05-04 05:18 | -48.37262 | 132.69723 | 31000 ft | 499 kts | 64° |
| 2026-05-04 05:19 | -48.34216 | 132.79081 | 31000 ft | 499 kts | 64° |
| 2026-05-04 05:19 | -48.31159 | 132.88443 | 31000 ft | 499 kts | 64° |
| 2026-05-04 05:20 | -48.28092 | 132.97798 | 31000 ft | 499 kts | 64° |
| 2026-05-04 05:20 | -48.25021 | 133.07131 | 31000 ft | 499 kts | 64° |
| 2026-05-04 05:21 | -48.21968 | 133.16378 | 31000 ft | 499 kts | 64° |
| 2026-05-04 05:21 | -48.18884 | 133.25684 | 31000 ft | 499 kts | 63° |
| 2026-05-04 05:22 | -48.15786 | 133.34998 | 31000 ft | 499 kts | 63° |
| 2026-05-04 05:22 | -48.12702 | 133.44236 | 31000 ft | 499 kts | 63° |
| 2026-05-04 05:23 | -48.09594 | 133.53513 | 31000 ft | 499 kts | 63° |
| 2026-05-04 05:23 | -48.06478 | 133.62781 | 31000 ft | 499 kts | 63° |
| 2026-05-04 05:24 | -48.03359 | 133.72022 | 31000 ft | 499 kts | 63° |
| 2026-05-04 05:24 | -48.00227 | 133.81271 | 31000 ft | 499 kts | 63° |
| 2026-05-04 05:25 | -47.97085 | 133.90516 | 31000 ft | 499 kts | 63° |
| 2026-05-04 05:25 | -47.93958 | 133.99684 | 31000 ft | 499 kts | 63° |
| 2026-05-04 05:26 | -47.90810 | 134.08881 | 31000 ft | 499 kts | 63° |
| 2026-05-04 05:26 | -47.87647 | 134.18087 | 31000 ft | 499 kts | 63° |
| 2026-05-04 05:28 | -47.74956 | 134.54708 | 31000 ft | 499 kts | 63° |
| 2026-05-04 05:29 | -47.71756 | 134.63861 | 31000 ft | 499 kts | 62° |
| 2026-05-04 05:29 | -47.68548 | 134.73004 | 31000 ft | 499 kts | 62° |
| 2026-05-04 05:31 | -47.55703 | 135.09301 | 31000 ft | 499 kts | 62° |
| 2026-05-04 05:32 | -47.52465 | 135.18373 | 31000 ft | 499 kts | 62° |
| 2026-05-04 05:33 | -47.47591 | 135.31967 | 31000 ft | 499 kts | 62° |
| 2026-05-04 05:33 | -47.44331 | 135.41023 | 31000 ft | 499 kts | 62° |
| 2026-05-04 05:34 | -47.41088 | 135.50000 | 31000 ft | 499 kts | 62° |
| 2026-05-04 05:34 | -47.37813 | 135.59034 | 31000 ft | 499 kts | 62° |
| 2026-05-04 05:35 | -47.34535 | 135.68047 | 31000 ft | 499 kts | 62° |
| 2026-05-04 05:35 | -47.31249 | 135.77051 | 31000 ft | 499 kts | 62° |
| 2026-05-04 05:36 | -47.27977 | 135.85988 | 31000 ft | 499 kts | 62° |
| 2026-05-04 05:36 | -47.24675 | 135.94975 | 31000 ft | 499 kts | 62° |
| 2026-05-04 05:37 | -47.21368 | 136.03945 | 31000 ft | 499 kts | 61° |
| 2026-05-04 05:37 | -47.18056 | 136.12901 | 31000 ft | 499 kts | 61° |
| 2026-05-04 05:38 | -47.13135 | 136.26297 | 31000 ft | 499 kts | 61° |
| 2026-05-04 05:38 | -47.09790 | 136.35220 | 31000 ft | 499 kts | 61° |
| 2026-05-04 05:39 | -47.04763 | 136.48571 | 31000 ft | 499 kts | 61° |
| 2026-05-04 05:40 | -46.99560 | 136.61792 | 31000 ft | 499 kts | 57° |
| 2026-05-04 05:40 | -46.95697 | 136.70141 | 31000 ft | 499 kts | 55° |
| 2026-05-04 05:41 | -46.91721 | 136.78461 | 31000 ft | 499 kts | 55° |
| 2026-05-04 05:41 | -46.87791 | 136.86808 | 31000 ft | 499 kts | 56° |
| 2026-05-04 05:42 | -46.83871 | 136.95174 | 31000 ft | 499 kts | 56° |
| 2026-05-04 05:42 | -46.79988 | 137.03566 | 31000 ft | 499 kts | 56° |
| 2026-05-04 05:43 | -46.76147 | 137.11928 | 31000 ft | 499 kts | 56° |
| 2026-05-04 05:45 | -46.60535 | 137.45259 | 31000 ft | 499 kts | 56° |
| 2026-05-04 05:47 | -46.44781 | 137.78432 | 31000 ft | 499 kts | 55° |
| 2026-05-04 05:47 | -46.40830 | 137.86689 | 31000 ft | 499 kts | 55° |
| 2026-05-04 05:48 | -46.36894 | 137.94891 | 31000 ft | 499 kts | 55° |
| 2026-05-04 05:48 | -46.32929 | 138.03129 | 31000 ft | 499 kts | 55° |
| 2026-05-04 05:49 | -46.28957 | 138.11359 | 31000 ft | 499 kts | 55° |
| 2026-05-04 05:49 | -46.25007 | 138.19517 | 31000 ft | 499 kts | 55° |
| 2026-05-04 05:51 | -46.09063 | 138.52213 | 31000 ft | 499 kts | 54° |
| 2026-05-04 05:52 | -46.05058 | 138.60368 | 31000 ft | 499 kts | 54° |
| 2026-05-04 05:52 | -46.01049 | 138.68505 | 31000 ft | 499 kts | 54° |
| 2026-05-04 05:54 | -45.84966 | 139.00917 | 31000 ft | 499 kts | 54° |
| 2026-05-04 05:55 | -45.80926 | 139.09001 | 31000 ft | 499 kts | 54° |
| 2026-05-04 05:55 | -45.76877 | 139.17081 | 31000 ft | 499 kts | 54° |
| 2026-05-04 05:56 | -45.72849 | 139.25095 | 31000 ft | 499 kts | 54° |
| 2026-05-04 05:56 | -45.68798 | 139.33132 | 31000 ft | 499 kts | 54° |
| 2026-05-04 05:57 | -45.64736 | 139.41168 | 31000 ft | 499 kts | 54° |
| 2026-05-04 05:57 | -45.60686 | 139.49158 | 31000 ft | 499 kts | 54° |
| 2026-05-04 05:58 | -45.56618 | 139.57161 | 31000 ft | 499 kts | 54° |
| 2026-05-04 05:58 | -45.52536 | 139.65168 | 31000 ft | 499 kts | 54° |
| 2026-05-04 05:59 | -45.48451 | 139.73158 | 31000 ft | 499 kts | 54° |
| 2026-05-04 05:59 | -45.44363 | 139.81133 | 31000 ft | 499 kts | 54° |
| 2026-05-04 06:00 | -45.40257 | 139.89120 | 31000 ft | 499 kts | 54° |
| 2026-05-04 06:00 | -45.36183 | 139.97023 | 31000 ft | 499 kts | 53° |
| 2026-05-04 06:01 | -45.32074 | 140.04971 | 31000 ft | 499 kts | 53° |
| 2026-05-04 06:03 | -45.15613 | 140.36592 | 31000 ft | 499 kts | 53° |
| 2026-05-04 06:05 | -44.96991 | 140.71948 | 31000 ft | 499 kts | 53° |
| 2026-05-04 06:06 | -44.92835 | 140.79781 | 31000 ft | 499 kts | 53° |
| 2026-05-04 06:06 | -44.88671 | 140.87606 | 31000 ft | 499 kts | 53° |
| 2026-05-04 06:07 | -44.84494 | 140.95436 | 31000 ft | 499 kts | 53° |
| 2026-05-04 06:07 | -44.80384 | 141.03207 | 31000 ft | 499 kts | 53° |
| 2026-05-04 06:08 | -44.76194 | 141.11001 | 31000 ft | 499 kts | 53° |
| 2026-05-04 06:08 | -44.71998 | 141.18766 | 31000 ft | 499 kts | 53° |
| 2026-05-04 06:09 | -44.67825 | 141.26478 | 31000 ft | 499 kts | 53° |
| 2026-05-04 06:11 | -44.48623 | 141.54518 | 31000 ft | 499 kts | 44° |
| 2026-05-04 06:13 | -44.28931 | 141.81772 | 31000 ft | 499 kts | 45° |
| 2026-05-04 06:14 | -44.11658 | 142.05465 | 31000 ft | 499 kts | 44° |
| 2026-05-04 06:16 | -43.96874 | 142.25567 | 31000 ft | 499 kts | 44° |
| 2026-05-04 06:16 | -43.91947 | 142.32233 | 31000 ft | 499 kts | 44° |
| 2026-05-04 06:17 | -43.86968 | 142.38954 | 31000 ft | 499 kts | 44° |
| 2026-05-04 06:17 | -43.81991 | 142.45655 | 31000 ft | 499 kts | 44° |
| 2026-05-04 06:18 | -43.77016 | 142.52337 | 31000 ft | 499 kts | 44° |
| 2026-05-04 06:20 | -43.57111 | 142.78910 | 32428 ft | 496 kts | 44° |
| 2026-05-04 06:20 | -43.54612 | 142.82227 | 32777 ft | 496 kts | 44° |
| 2026-05-04 06:21 | -43.44751 | 142.95280 | 34125 ft | 493 kts | 44° |
| 2026-05-04 06:21 | -43.42154 | 142.98708 | 34457 ft | 492 kts | 44° |
| 2026-05-04 06:22 | -43.39685 | 143.01962 | 34750 ft | 491 kts | 44° |
| 2026-05-04 06:22 | -43.37217 | 143.05211 | 35037 ft | 491 kts | 44° |
| 2026-05-04 06:25 | -43.05303 | 143.46885 | 37000 ft | 487 kts | 43° |
| 2026-05-04 06:26 | -43.00380 | 143.53256 | 37000 ft | 487 kts | 43° |
| 2026-05-04 06:26 | -42.95452 | 143.59622 | 37000 ft | 487 kts | 43° |
| 2026-05-04 06:27 | -42.83126 | 143.75475 | 37000 ft | 487 kts | 43° |
| 2026-05-04 06:28 | -42.78219 | 143.81760 | 37000 ft | 487 kts | 43° |
| 2026-05-04 06:28 | -42.73281 | 143.88072 | 37000 ft | 487 kts | 43° |
| 2026-05-04 06:29 | -42.68330 | 143.94385 | 37000 ft | 487 kts | 43° |
| 2026-05-04 06:29 | -42.63381 | 144.00682 | 37000 ft | 487 kts | 43° |
| 2026-05-04 06:30 | -42.58416 | 144.06984 | 37000 ft | 487 kts | 43° |
| 2026-05-04 06:30 | -42.53466 | 144.13253 | 37000 ft | 487 kts | 43° |
| 2026-05-04 06:31 | -42.48506 | 144.19520 | 37000 ft | 487 kts | 43° |
| 2026-05-04 06:31 | -42.43581 | 144.25729 | 37000 ft | 487 kts | 43° |
| 2026-05-04 06:33 | -42.23688 | 144.50668 | 37000 ft | 487 kts | 43° |
| 2026-05-04 06:34 | -42.18737 | 144.56839 | 37000 ft | 487 kts | 43° |
| 2026-05-04 06:34 | -42.13762 | 144.63028 | 37000 ft | 487 kts | 43° |
| 2026-05-04 06:36 | -41.94636 | 144.86688 | 37000 ft | 487 kts | 43° |
| 2026-05-04 06:37 | -41.89636 | 144.92840 | 37000 ft | 487 kts | 42° |
| 2026-05-04 06:37 | -41.83790 | 145.00016 | 37000 ft | 487 kts | 42° |
| 2026-05-04 06:38 | -41.78787 | 145.06142 | 37000 ft | 487 kts | 42° |
| 2026-05-04 06:40 | -41.59596 | 145.29517 | 37000 ft | 487 kts | 42° |
| 2026-05-04 06:40 | -41.54574 | 145.35602 | 37000 ft | 487 kts | 42° |
| 2026-05-04 06:41 | -41.49545 | 145.41683 | 37000 ft | 487 kts | 42° |
| 2026-05-04 06:41 | -41.44518 | 145.47746 | 37000 ft | 487 kts | 42° |
| 2026-05-04 06:42 | -41.39493 | 145.53795 | 37000 ft | 487 kts | 42° |
| 2026-05-04 06:44 | -41.19359 | 145.77899 | 37000 ft | 487 kts | 42° |
| 2026-05-04 06:44 | -41.14317 | 145.83903 | 37000 ft | 487 kts | 42° |
| 2026-05-04 06:45 | -41.09265 | 145.89906 | 37000 ft | 487 kts | 42° |
| 2026-05-04 06:45 | -41.04206 | 145.95904 | 37000 ft | 487 kts | 41° |
| 2026-05-04 06:46 | -40.99200 | 146.01848 | 37000 ft | 487 kts | 42° |
| 2026-05-04 06:46 | -40.94147 | 146.07842 | 37000 ft | 487 kts | 41° |
| 2026-05-04 06:48 | -40.73914 | 146.31269 | 37000 ft | 487 kts | 37° |
| 2026-05-04 06:50 | -40.52062 | 146.52343 | 37000 ft | 487 kts | 36° |
| 2026-05-04 06:51 | -40.46621 | 146.57644 | 37000 ft | 487 kts | 37° |
| 2026-05-04 06:51 | -40.41183 | 146.62971 | 37000 ft | 487 kts | 37° |
| 2026-05-04 06:52 | -40.35753 | 146.68252 | 37000 ft | 487 kts | 36° |
| 2026-05-04 06:52 | -40.30287 | 146.73548 | 37000 ft | 487 kts | 36° |
| 2026-05-04 06:53 | -40.24865 | 146.78786 | 37000 ft | 487 kts | 36° |
| 2026-05-04 06:53 | -40.19396 | 146.84058 | 37000 ft | 487 kts | 36° |
| 2026-05-04 06:54 | -40.13937 | 146.89309 | 37000 ft | 487 kts | 36° |
| 2026-05-04 06:54 | -40.08474 | 146.94552 | 37000 ft | 487 kts | 36° |
| 2026-05-04 06:55 | -40.03011 | 146.99786 | 37000 ft | 487 kts | 36° |
| 2026-05-04 06:55 | -39.97532 | 147.05023 | 37000 ft | 487 kts | 36° |
| 2026-05-04 06:57 | -39.75661 | 147.25825 | 37000 ft | 487 kts | 36° |
| 2026-05-04 06:58 | -39.70148 | 147.31043 | 37000 ft | 487 kts | 36° |
| 2026-05-04 06:58 | -39.64706 | 147.36183 | 37000 ft | 487 kts | 36° |
| 2026-05-04 06:59 | -39.59210 | 147.41362 | 37000 ft | 487 kts | 36° |
| 2026-05-04 06:59 | -39.53723 | 147.46525 | 37000 ft | 487 kts | 36° |
| 2026-05-04 07:01 | -39.31339 | 147.67474 | 37000 ft | 487 kts | 36° |
| 2026-05-04 07:02 | -39.25878 | 147.72560 | 37000 ft | 487 kts | 36° |
| 2026-05-04 07:02 | -39.20339 | 147.77709 | 37000 ft | 487 kts | 36° |
| 2026-05-04 07:03 | -39.14832 | 147.82816 | 37000 ft | 487 kts | 36° |
| 2026-05-04 07:03 | -39.09359 | 147.87883 | 37000 ft | 487 kts | 36° |
| 2026-05-04 07:04 | -39.03854 | 147.92970 | 37000 ft | 487 kts | 36° |
| 2026-05-04 07:04 | -38.98352 | 147.98043 | 37000 ft | 487 kts | 36° |
| 2026-05-04 07:05 | -38.92838 | 148.03118 | 37000 ft | 487 kts | 36° |
| 2026-05-04 07:05 | -38.87356 | 148.08154 | 37000 ft | 487 kts | 36° |
| 2026-05-04 07:06 | -38.79073 | 148.15745 | 37000 ft | 487 kts | 36° |
| 2026-05-04 07:07 | -38.73904 | 148.20491 | 36999 ft | 487 kts | 36° |
| 2026-05-04 07:09 | -38.51722 | 148.40529 | 36997 ft | 495 kts | 31° |
| 2026-05-04 07:09 | -38.45323 | 148.44009 | 37002 ft | 499 kts | 14° |
| 2026-05-04 07:10 | -38.38502 | 148.45654 | 37000 ft | 499 kts | 8° |
| 2026-05-04 07:12 | -38.11656 | 148.51898 | 37116 ft | 488 kts | 5° |
| 2026-05-04 07:12 | -38.08441 | 148.52697 | 37643 ft | 459 kts | 5° |
| 2026-05-04 07:12 | -38.05369 | 148.53459 | 37748 ft | 452 kts | 5° |
| 2026-05-04 07:12 | -38.02313 | 148.54217 | 37416 ft | 443 kts | 4° |
| 2026-05-04 07:13 | -37.99277 | 148.54968 | 37107 ft | 443 kts | 4° |
| 2026-05-04 07:13 | -37.93212 | 148.56466 | 36988 ft | 446 kts | 5° |
| 2026-05-04 07:14 | -37.77919 | 148.60231 | 36967 ft | 450 kts | 5° |
| 2026-05-04 07:15 | -37.71761 | 148.61743 | 36970 ft | 451 kts | 5° |
| 2026-05-04 07:15 | -37.65610 | 148.63250 | 37005 ft | 452 kts | 5° |
| 2026-05-04 07:16 | -37.59419 | 148.64765 | 37006 ft | 453 kts | 5° |
| 2026-05-04 07:16 | -37.54272 | 148.66022 | 37009 ft | 453 kts | 5° |
| 2026-05-04 07:17 | -37.48091 | 148.67529 | 37011 ft | 453 kts | 5° |
| 2026-05-04 07:17 | -37.41923 | 148.69031 | 37013 ft | 454 kts | 5° |
| 2026-05-04 07:18 | -37.35722 | 148.70538 | 37015 ft | 455 kts | 5° |
| 2026-05-04 07:18 | -37.29473 | 148.72054 | 37016 ft | 456 kts | 5° |
| 2026-05-04 07:19 | -37.23220 | 148.73569 | 37019 ft | 457 kts | 5° |
| 2026-05-04 07:19 | -37.16938 | 148.75088 | 37020 ft | 458 kts | 5° |
| 2026-05-04 07:20 | -37.10724 | 148.76588 | 37022 ft | 458 kts | 5° |
| 2026-05-04 07:20 | -37.04442 | 148.78102 | 37024 ft | 459 kts | 5° |
| 2026-05-04 07:22 | -36.79290 | 148.84138 | 37031 ft | 462 kts | 5° |
| 2026-05-04 07:23 | -36.72968 | 148.85649 | 37033 ft | 463 kts | 5° |
| 2026-05-04 07:23 | -36.66643 | 148.87159 | 37034 ft | 463 kts | 5° |
| 2026-05-04 07:24 | -36.60326 | 148.88663 | 37037 ft | 464 kts | 5° |
| 2026-05-04 07:24 | -36.54003 | 148.90167 | 37038 ft | 464 kts | 5° |
| 2026-05-04 07:26 | -36.28554 | 148.96193 | 37043 ft | 466 kts | 5° |
| 2026-05-04 07:27 | -36.22173 | 148.97698 | 37044 ft | 466 kts | 5° |
| 2026-05-04 07:27 | -36.15850 | 148.99186 | 37046 ft | 466 kts | 5° |
| 2026-05-04 07:28 | -36.09492 | 149.00681 | 37047 ft | 466 kts | 5° |
| 2026-05-04 07:28 | -36.03103 | 149.02180 | 37048 ft | 467 kts | 5° |
| 2026-05-04 07:29 | -35.96712 | 149.03677 | 37049 ft | 467 kts | 4° |
| 2026-05-04 07:29 | -35.90343 | 149.05167 | 37050 ft | 470 kts | 5° |
| 2026-05-04 07:30 | -35.83912 | 149.06669 | 37050 ft | 470 kts | 5° |
| 2026-05-04 07:30 | -35.77498 | 149.08164 | 37050 ft | 470 kts | 5° |
| 2026-05-04 07:31 | -35.71063 | 149.09661 | 37051 ft | 471 kts | 5° |
| 2026-05-04 07:33 | -35.45375 | 149.15622 | 37053 ft | 470 kts | 4° |
| 2026-05-04 07:33 | -35.38954 | 149.17102 | 37053 ft | 471 kts | 4° |
| 2026-05-04 07:34 | -35.32485 | 149.18591 | 37053 ft | 471 kts | 4° |
| 2026-05-04 07:34 | -35.26043 | 149.20201 | 37053 ft | 475 kts | 8° |
| 2026-05-04 07:35 | -35.19731 | 149.22499 | 36979 ft | 474 kts | 11° |
| 2026-05-04 07:35 | -35.16588 | 149.23691 | 36560 ft | 467 kts | 10° |
| 2026-05-04 07:35 | -35.13588 | 149.24799 | 35804 ft | 467 kts | 10° |
| 2026-05-04 07:36 | -35.10396 | 149.25958 | 35249 ft | 462 kts | 10° |
| 2026-05-04 07:36 | -35.07319 | 149.27066 | 34630 ft | 460 kts | 10° |
| 2026-05-04 07:38 | -34.86612 | 149.34505 | 31333 ft | 428 kts | 10° |
| 2026-05-04 07:38 | -34.83762 | 149.35522 | 30893 ft | 424 kts | 10° |
| 2026-05-04 07:38 | -34.80945 | 149.36525 | 30452 ft | 420 kts | 10° |
| 2026-05-04 07:38 | -34.78154 | 149.37521 | 30014 ft | 416 kts | 11° |
| 2026-05-04 07:39 | -34.75458 | 149.38875 | 29545 ft | 423 kts | 23° |
| 2026-05-04 07:39 | -34.73135 | 149.41067 | 29063 ft | 433 kts | 38° |
| 2026-05-04 07:39 | -34.71247 | 149.43999 | 28584 ft | 442 kts | 51° |
| 2026-05-04 07:39 | -34.69815 | 149.47301 | 28102 ft | 446 kts | 58° |
| 2026-05-04 07:40 | -34.68554 | 149.50734 | 27617 ft | 444 kts | 59° |
| 2026-05-04 07:40 | -34.67263 | 149.54147 | 27145 ft | 440 kts | 58° |
| 2026-05-04 07:40 | -34.65932 | 149.57451 | 26686 ft | 435 kts | 56° |
| 2026-05-04 07:40 | -34.64574 | 149.60660 | 26237 ft | 431 kts | 55° |
| 2026-05-04 07:41 | -34.63165 | 149.63914 | 25772 ft | 428 kts | 55° |
| 2026-05-04 07:41 | -34.61783 | 149.67060 | 25316 ft | 425 kts | 54° |
| 2026-05-04 07:41 | -34.60399 | 149.70204 | 24860 ft | 422 kts | 55° |
| 2026-05-04 07:41 | -34.59014 | 149.73344 | 24406 ft | 419 kts | 55° |
| 2026-05-04 07:42 | -34.57648 | 149.76440 | 23952 ft | 417 kts | 55° |
| 2026-05-04 07:42 | -34.56286 | 149.79524 | 23503 ft | 414 kts | 55° |
| 2026-05-04 07:42 | -34.54932 | 149.82591 | 23055 ft | 411 kts | 55° |
| 2026-05-04 07:42 | -34.53596 | 149.85614 | 22612 ft | 397 kts | 55° |
| 2026-05-04 07:43 | -34.52312 | 149.88519 | 22194 ft | 383 kts | 54° |
| 2026-05-04 07:43 | -34.51061 | 149.91348 | 21772 ft | 386 kts | 55° |
| 2026-05-04 07:43 | -34.49787 | 149.94233 | 21349 ft | 395 kts | 55° |
| 2026-05-04 07:43 | -34.48487 | 149.97167 | 20905 ft | 399 kts | 55° |
| 2026-05-04 07:44 | -34.47221 | 150.00023 | 20488 ft | 393 kts | 55° |
| 2026-05-04 07:44 | -34.45909 | 150.02977 | 20049 ft | 381 kts | 56° |
| 2026-05-04 07:44 | -34.44675 | 150.05757 | 19634 ft | 367 kts | 55° |
| 2026-05-04 07:44 | -34.43480 | 150.08446 | 19229 ft | 366 kts | 56° |
| 2026-05-04 07:45 | -34.42273 | 150.11214 | 18807 ft | 373 kts | 56° |
| 2026-05-04 07:45 | -34.41055 | 150.13999 | 18386 ft | 378 kts | 56° |
| 2026-05-04 07:45 | -34.39807 | 150.16823 | 17951 ft | 377 kts | 56° |
| 2026-05-04 07:45 | -34.38590 | 150.19559 | 17532 ft | 366 kts | 56° |
| 2026-05-04 07:46 | -34.37397 | 150.22233 | 17103 ft | 355 kts | 56° |
| 2026-05-04 07:46 | -34.36237 | 150.24827 | 16687 ft | 349 kts | 56° |
| 2026-05-04 07:46 | -34.35057 | 150.27467 | 16248 ft | 359 kts | 56° |
| 2026-05-04 07:46 | -34.33866 | 150.30126 | 15778 ft | 365 kts | 56° |
| 2026-05-04 07:47 | -34.32619 | 150.32908 | 15154 ft | 384 kts | 56° |
| 2026-05-04 07:47 | -34.31359 | 150.35722 | 14530 ft | 387 kts | 56° |
| 2026-05-04 07:47 | -34.30099 | 150.38538 | 13956 ft | 378 kts | 56° |
| 2026-05-04 07:49 | -34.21772 | 150.57136 | 9899 ft | 341 kts | 57° |
| 2026-05-04 07:49 | -34.20651 | 150.59630 | 9474 ft | 335 kts | 57° |
| 2026-05-04 07:49 | -34.19544 | 150.62094 | 9048 ft | 329 kts | 57° |
| 2026-05-04 07:50 | -34.18461 | 150.64506 | 8618 ft | 318 kts | 57° |
| 2026-05-04 07:50 | -34.17410 | 150.66847 | 8189 ft | 307 kts | 57° |
| 2026-05-04 07:50 | -34.16399 | 150.69103 | 7762 ft | 297 kts | 57° |
| 2026-05-04 07:50 | -34.15429 | 150.71260 | 7331 ft | 289 kts | 57° |
| 2026-05-04 07:51 | -34.14501 | 150.73316 | 6954 ft | 279 kts | 57° |
| 2026-05-04 07:51 | -34.13566 | 150.75387 | 6509 ft | 271 kts | 57° |
| 2026-05-04 07:51 | -34.12677 | 150.77357 | 6142 ft | 262 kts | 57° |
| 2026-05-04 07:51 | -34.11841 | 150.79208 | 6067 ft | 241 kts | 56° |
| 2026-05-04 07:52 | -34.11078 | 150.80896 | 5975 ft | 221 kts | 56° |
| 2026-05-04 07:52 | -34.10377 | 150.82448 | 5969 ft | 203 kts | 56° |
| 2026-05-04 07:52 | -34.09698 | 150.83969 | 6009 ft | 210 kts | 56° |
| 2026-05-04 07:52 | -34.09469 | 150.84479 | 6008 ft | 215 kts | 56° |
| 2026-05-04 07:54 | -34.03431 | 150.97863 | 6046 ft | 216 kts | 56° |
| 2026-05-04 07:55 | -34.02813 | 150.99486 | 5993 ft | 228 kts | 68° |
| 2026-05-04 07:55 | -34.02862 | 151.01385 | 5983 ft | 231 kts | 100° |
| 2026-05-04 07:55 | -34.03737 | 151.03058 | 6002 ft | 246 kts | 131° |
| 2026-05-04 07:55 | -34.05104 | 151.04386 | 6039 ft | 259 kts | 142° |
| 2026-05-04 07:56 | -34.06524 | 151.05889 | 5846 ft | 274 kts | 139° |
| 2026-05-04 07:56 | -34.08150 | 151.07124 | 5583 ft | 277 kts | 155° |
| 2026-05-04 07:56 | -34.09886 | 151.08015 | 5308 ft | 274 kts | 159° |
| 2026-05-04 07:56 | -34.11691 | 151.08740 | 5043 ft | 270 kts | 166° |
| 2026-05-04 07:57 | -34.13501 | 151.09244 | 4764 ft | 266 kts | 169° |
| 2026-05-04 07:57 | -34.15302 | 151.09664 | 4492 ft | 262 kts | 171° |
| 2026-05-04 07:57 | -34.17076 | 151.10098 | 4216 ft | 258 kts | 169° |
| 2026-05-04 07:57 | -34.18840 | 151.10542 | 3938 ft | 255 kts | 169° |
| 2026-05-04 07:58 | -34.20533 | 151.11025 | 3664 ft | 252 kts | 163° |
| 2026-05-04 07:58 | -34.21975 | 151.12145 | 3372 ft | 247 kts | 134° |
| 2026-05-04 07:58 | -34.22765 | 151.13945 | 3097 ft | 240 kts | 103° |
| 2026-05-04 07:58 | -34.22857 | 151.15917 | 2995 ft | 228 kts | 86° |
| 2026-05-04 07:59 | -34.22791 | 151.17816 | 2969 ft | 222 kts | 84° |
| 2026-05-04 07:59 | -34.22677 | 151.19648 | 2986 ft | 216 kts | 79° |
| 2026-05-04 07:59 | -34.22072 | 151.21249 | 2988 ft | 203 kts | 50° |
| 2026-05-04 07:59 | -34.20956 | 151.22353 | 3005 ft | 205 kts | 30° |
| 2026-05-04 08:00 | -34.19677 | 151.22997 | 3006 ft | 203 kts | 15° |
| 2026-05-04 08:00 | -34.18282 | 151.23238 | 3001 ft | 200 kts | 1° |
| 2026-05-04 08:00 | -34.16896 | 151.23159 | 3004 ft | 200 kts | 354° |
| 2026-05-04 08:02 | -34.07791 | 151.21022 | 2269 ft | 180 kts | 347° |
| 2026-05-04 08:02 | -34.06601 | 151.20712 | 2030 ft | 171 kts | 347° |
| 2026-05-04 08:02 | -34.05518 | 151.20430 | 1810 ft | 154 kts | 347° |
| 2026-05-04 08:03 | -34.04476 | 151.20159 | 1615 ft | 150 kts | 347° |
| 2026-05-04 08:03 | -34.03464 | 151.19896 | 1451 ft | 152 kts | 348° |
| 2026-05-04 08:03 | -34.02407 | 151.19621 | 1228 ft | 154 kts | 348° |
| 2026-05-04 08:03 | -34.01440 | 151.19369 | 1032 ft | 154 kts | 348° |
| 2026-05-04 08:04 | -34.00358 | 151.19088 | 818 ft | 153 kts | 348° |
| 2026-05-04 08:04 | -33.99319 | 151.18818 | 614 ft | 154 kts | 348° |
| 2026-05-04 08:04 | -33.98257 | 151.18542 | 408 ft | 154 kts | 348° |
| 2026-05-04 08:04 | -33.97214 | 151.18271 | 209 ft | 153 kts | 348° |
| 2026-05-04 08:05 | -33.96223 | 151.18012 | 58 ft | 133 kts | 348° |
| 2026-05-04 08:05 | -33.95492 | 151.17825 | 35 ft | 81 kts | 348° |
| 2026-05-04 08:05 | -33.95173 | 151.17742 | 35 ft | 27 kts | 347° |
| 2026-05-04 08:05 | -33.94949 | 151.17682 | 35 ft | 39 kts | 348° |
| 2026-05-04 08:06 | -33.94678 | 151.17607 | 35 ft | 37 kts | 345° |
| 2026-05-04 08:06 | -33.94486 | 151.17506 | 35 ft | 23 kts | 325° |
| 2026-05-04 08:06 | -33.94450 | 151.17476 | 35 ft | 0 kts | 325° |
| 2026-05-04 08:08 | -33.94302 | 151.17327 | 35 ft | 12 kts | 329° |
| 2026-05-04 08:08 | -33.94215 | 151.17289 | 35 ft | 12 kts | 344° |
| 2026-05-04 08:10 | -33.93930 | 151.17099 | 35 ft | 7 kts | 345° |
| 2026-05-04 08:11 | -33.93895 | 151.17088 | 35 ft | 3 kts | 345° |
| 2026-05-04 08:11 | -33.93850 | 151.17066 | 35 ft | 5 kts | 307° |
| 2026-05-04 08:11 | -33.93855 | 151.16993 | 35 ft | 10 kts | 257° |
| 2026-05-04 08:12 | -33.93861 | 151.16967 | 35 ft | 0 kts | 255° |
| 2026-05-04 08:12 | -33.93861 | 151.16969 | 35 ft | 1 kts | 255° |
| 2026-05-04 08:12 | -33.93860 | 151.16971 | 35 ft | 0 kts | 255° |